<?xml version="1.0" encoding="UTF-8" standalone="no" ?>
<gpx xmlns="http://www.topografix.com/GPX/1/1" xmlns:xsi="http://www.w3.org/2001/XMLSchema-instance" xsi:schemaLocation="http://www.topografix.com/GPX/1/1 http://www.topografix.com/GPX/1/1/gpx.xsd" version="1.1" creator="VisuGPX - https://www.visugpx.com">
  <metadata>
    <name>boucle Alagnon</name>
    <desc><![CDATA[Téton de Vénus, etc..]]></desc>
  </metadata>
  <trk>
    <name><![CDATA[TetonVenusBecAigle]]></name>
    <trkseg>
      <trkpt lat="45.08519" lon="2.73313">
        <ele>1299.811646</ele>
        <time>2008-08-28T12:17:16Z</time>
      </trkpt>
      <trkpt lat="45.08519" lon="2.73328">
        <ele>1300.933838</ele>
        <time>2008-08-28T12:17:20Z</time>
      </trkpt>
      <trkpt lat="45.08515" lon="2.73341">
        <ele>1301.498047</ele>
        <time>2008-08-28T12:17:30Z</time>
      </trkpt>
      <trkpt lat="45.08521" lon="2.73355">
        <ele>1301.703491</ele>
        <time>2008-08-28T12:17:37Z</time>
      </trkpt>
      <trkpt lat="45.08525" lon="2.73367">
        <ele>1301.838135</ele>
        <time>2008-08-28T12:17:45Z</time>
      </trkpt>
      <trkpt lat="45.08529" lon="2.73382">
        <ele>1301.934937</ele>
        <time>2008-08-28T12:17:55Z</time>
      </trkpt>
      <trkpt lat="45.08533" lon="2.73394">
        <ele>1301.989502</ele>
        <time>2008-08-28T12:18:03Z</time>
      </trkpt>
      <trkpt lat="45.08537" lon="2.73408">
        <ele>1301.478516</ele>
        <time>2008-08-28T12:18:12Z</time>
      </trkpt>
      <trkpt lat="45.08542" lon="2.73421">
        <ele>1300.888428</ele>
        <time>2008-08-28T12:18:21Z</time>
      </trkpt>
      <trkpt lat="45.08552" lon="2.73426">
        <ele>1301.905151</ele>
        <time>2008-08-28T12:18:31Z</time>
      </trkpt>
      <trkpt lat="45.08553" lon="2.73411">
        <ele>1303.077637</ele>
        <time>2008-08-28T12:18:46Z</time>
      </trkpt>
      <trkpt lat="45.08554" lon="2.73396">
        <ele>1304.228516</ele>
        <time>2008-08-28T12:18:58Z</time>
      </trkpt>
      <trkpt lat="45.08555" lon="2.73382">
        <ele>1304.580688</ele>
        <time>2008-08-28T12:19:10Z</time>
      </trkpt>
      <trkpt lat="45.0856" lon="2.73369">
        <ele>1305.610229</ele>
        <time>2008-08-28T12:19:19Z</time>
      </trkpt>
      <trkpt lat="45.0856" lon="2.73355">
        <ele>1305.675781</ele>
        <time>2008-08-28T12:19:28Z</time>
      </trkpt>
      <trkpt lat="45.0857" lon="2.7335">
        <ele>1307.672119</ele>
        <time>2008-08-28T12:19:36Z</time>
      </trkpt>
      <trkpt lat="45.0858" lon="2.73344">
        <ele>1309.78418</ele>
        <time>2008-08-28T12:19:44Z</time>
      </trkpt>
      <trkpt lat="45.08587" lon="2.73333">
        <ele>1311.456543</ele>
        <time>2008-08-28T12:19:54Z</time>
      </trkpt>
      <trkpt lat="45.08591" lon="2.73319">
        <ele>1312.401978</ele>
        <time>2008-08-28T12:20:04Z</time>
      </trkpt>
      <trkpt lat="45.08592" lon="2.73304">
        <ele>1312.45166</ele>
        <time>2008-08-28T12:20:14Z</time>
      </trkpt>
      <trkpt lat="45.08589" lon="2.7329">
        <ele>1311.380249</ele>
        <time>2008-08-28T12:20:24Z</time>
      </trkpt>
      <trkpt lat="45.08596" lon="2.7328">
        <ele>1313.374634</ele>
        <time>2008-08-28T12:20:34Z</time>
      </trkpt>
      <trkpt lat="45.08603" lon="2.73269">
        <ele>1315.425171</ele>
        <time>2008-08-28T12:20:48Z</time>
      </trkpt>
      <trkpt lat="45.08608" lon="2.73257">
        <ele>1316.840332</ele>
        <time>2008-08-28T12:21:01Z</time>
      </trkpt>
      <trkpt lat="45.08613" lon="2.73244">
        <ele>1318.524414</ele>
        <time>2008-08-28T12:21:14Z</time>
      </trkpt>
      <trkpt lat="45.08615" lon="2.7323">
        <ele>1319.199829</ele>
        <time>2008-08-28T12:21:28Z</time>
      </trkpt>
      <trkpt lat="45.08622" lon="2.7322">
        <ele>1322.132202</ele>
        <time>2008-08-28T12:21:39Z</time>
      </trkpt>
      <trkpt lat="45.08631" lon="2.73212">
        <ele>1326.073853</ele>
        <time>2008-08-28T12:21:50Z</time>
      </trkpt>
      <trkpt lat="45.08638" lon="2.73202">
        <ele>1328.307129</ele>
        <time>2008-08-28T12:22:03Z</time>
      </trkpt>
      <trkpt lat="45.08643" lon="2.73189">
        <ele>1330.233887</ele>
        <time>2008-08-28T12:22:18Z</time>
      </trkpt>
      <trkpt lat="45.08649" lon="2.73177">
        <ele>1332.914307</ele>
        <time>2008-08-28T12:22:34Z</time>
      </trkpt>
      <trkpt lat="45.08654" lon="2.73163">
        <ele>1335.904907</ele>
        <time>2008-08-28T12:22:49Z</time>
      </trkpt>
      <trkpt lat="45.08658" lon="2.7315">
        <ele>1338.718628</ele>
        <time>2008-08-28T12:23:00Z</time>
      </trkpt>
      <trkpt lat="45.08665" lon="2.73139">
        <ele>1343.144409</ele>
        <time>2008-08-28T12:23:09Z</time>
      </trkpt>
      <trkpt lat="45.08672" lon="2.73128">
        <ele>1347.704834</ele>
        <time>2008-08-28T12:23:19Z</time>
      </trkpt>
      <trkpt lat="45.08676" lon="2.73115">
        <ele>1350.95813</ele>
        <time>2008-08-28T12:23:28Z</time>
      </trkpt>
      <trkpt lat="45.08677" lon="2.731">
        <ele>1351.844116</ele>
        <time>2008-08-28T12:23:37Z</time>
      </trkpt>
      <trkpt lat="45.08679" lon="2.73086">
        <ele>1352.635864</ele>
        <time>2008-08-28T12:23:46Z</time>
      </trkpt>
      <trkpt lat="45.08685" lon="2.73074">
        <ele>1353.032593</ele>
        <time>2008-08-28T12:23:55Z</time>
      </trkpt>
      <trkpt lat="45.08687" lon="2.7306">
        <ele>1353.753052</ele>
        <time>2008-08-28T12:24:05Z</time>
      </trkpt>
      <trkpt lat="45.08687" lon="2.73045">
        <ele>1354.594849</ele>
        <time>2008-08-28T12:24:19Z</time>
      </trkpt>
      <trkpt lat="45.08687" lon="2.7303">
        <ele>1355.429932</ele>
        <time>2008-08-28T12:24:28Z</time>
      </trkpt>
      <trkpt lat="45.08694" lon="2.73018">
        <ele>1356.051025</ele>
        <time>2008-08-28T12:24:38Z</time>
      </trkpt>
      <trkpt lat="45.08699" lon="2.73004">
        <ele>1356.716675</ele>
        <time>2008-08-28T12:24:49Z</time>
      </trkpt>
      <trkpt lat="45.08702" lon="2.72991">
        <ele>1357.55542</ele>
        <time>2008-08-28T12:24:59Z</time>
      </trkpt>
      <trkpt lat="45.08701" lon="2.72977">
        <ele>1358.270508</ele>
        <time>2008-08-28T12:25:07Z</time>
      </trkpt>
      <trkpt lat="45.08701" lon="2.72962">
        <ele>1359.029907</ele>
        <time>2008-08-28T12:25:16Z</time>
      </trkpt>
      <trkpt lat="45.08702" lon="2.72948">
        <ele>1359.508423</ele>
        <time>2008-08-28T12:25:25Z</time>
      </trkpt>
      <trkpt lat="45.08702" lon="2.72931">
        <ele>1359.615112</ele>
        <time>2008-08-28T12:25:38Z</time>
      </trkpt>
      <trkpt lat="45.087" lon="2.72916">
        <ele>1359.393799</ele>
        <time>2008-08-28T12:25:45Z</time>
      </trkpt>
      <trkpt lat="45.08697" lon="2.72901">
        <ele>1359.218628</ele>
        <time>2008-08-28T12:25:54Z</time>
      </trkpt>
      <trkpt lat="45.08695" lon="2.72886">
        <ele>1359.766724</ele>
        <time>2008-08-28T12:26:03Z</time>
      </trkpt>
      <trkpt lat="45.08691" lon="2.72872">
        <ele>1360.841919</ele>
        <time>2008-08-28T12:26:10Z</time>
      </trkpt>
      <trkpt lat="45.08694" lon="2.72858">
        <ele>1362.663574</ele>
        <time>2008-08-28T12:26:19Z</time>
      </trkpt>
      <trkpt lat="45.08703" lon="2.72852">
        <ele>1363.953613</ele>
        <time>2008-08-28T12:26:26Z</time>
      </trkpt>
      <trkpt lat="45.08714" lon="2.72853">
        <ele>1364.551392</ele>
        <time>2008-08-28T12:26:32Z</time>
      </trkpt>
      <trkpt lat="45.08721" lon="2.72844">
        <ele>1365.828003</ele>
        <time>2008-08-28T12:26:43Z</time>
      </trkpt>
      <trkpt lat="45.08715" lon="2.72832">
        <ele>1366.472534</ele>
        <time>2008-08-28T12:27:06Z</time>
      </trkpt>
      <trkpt lat="45.08705" lon="2.72826">
        <ele>1366.494873</ele>
        <time>2008-08-28T12:27:17Z</time>
      </trkpt>
      <trkpt lat="45.08697" lon="2.72817">
        <ele>1366.649048</ele>
        <time>2008-08-28T12:27:22Z</time>
      </trkpt>
      <trkpt lat="45.08689" lon="2.72808">
        <ele>1366.705566</ele>
        <time>2008-08-28T12:27:27Z</time>
      </trkpt>
      <trkpt lat="45.08686" lon="2.72794">
        <ele>1367.232666</ele>
        <time>2008-08-28T12:27:35Z</time>
      </trkpt>
      <trkpt lat="45.08686" lon="2.72779">
        <ele>1368.045166</ele>
        <time>2008-08-28T12:27:43Z</time>
      </trkpt>
      <trkpt lat="45.08682" lon="2.72765">
        <ele>1368.417236</ele>
        <time>2008-08-28T12:27:50Z</time>
      </trkpt>
      <trkpt lat="45.08673" lon="2.72755">
        <ele>1368.630127</ele>
        <time>2008-08-28T12:27:56Z</time>
      </trkpt>
      <trkpt lat="45.08668" lon="2.72741">
        <ele>1369.279785</ele>
        <time>2008-08-28T12:28:04Z</time>
      </trkpt>
      <trkpt lat="45.08663" lon="2.72728">
        <ele>1369.954102</ele>
        <time>2008-08-28T12:28:12Z</time>
      </trkpt>
      <trkpt lat="45.08663" lon="2.72713">
        <ele>1371.98291</ele>
        <time>2008-08-28T12:28:25Z</time>
      </trkpt>
      <trkpt lat="45.0867" lon="2.72702">
        <ele>1375.336304</ele>
        <time>2008-08-28T12:28:34Z</time>
      </trkpt>
      <trkpt lat="45.08675" lon="2.72688">
        <ele>1378.687012</ele>
        <time>2008-08-28T12:28:44Z</time>
      </trkpt>
      <trkpt lat="45.08684" lon="2.72679">
        <ele>1381.412231</ele>
        <time>2008-08-28T12:28:50Z</time>
      </trkpt>
      <trkpt lat="45.08682" lon="2.72665">
        <ele>1383.448608</ele>
        <time>2008-08-28T12:28:59Z</time>
      </trkpt>
      <trkpt lat="45.08687" lon="2.72652">
        <ele>1386.302124</ele>
        <time>2008-08-28T12:29:09Z</time>
      </trkpt>
      <trkpt lat="45.08694" lon="2.72642">
        <ele>1389.201294</ele>
        <time>2008-08-28T12:29:17Z</time>
      </trkpt>
      <trkpt lat="45.087" lon="2.7263">
        <ele>1392.091309</ele>
        <time>2008-08-28T12:29:27Z</time>
      </trkpt>
      <trkpt lat="45.08706" lon="2.72618">
        <ele>1394.750854</ele>
        <time>2008-08-28T12:29:36Z</time>
      </trkpt>
      <trkpt lat="45.08713" lon="2.72608">
        <ele>1397.226807</ele>
        <time>2008-08-28T12:29:46Z</time>
      </trkpt>
      <trkpt lat="45.0872" lon="2.72597">
        <ele>1399.869019</ele>
        <time>2008-08-28T12:29:59Z</time>
      </trkpt>
      <trkpt lat="45.08729" lon="2.72591">
        <ele>1400.115356</ele>
        <time>2008-08-28T12:30:07Z</time>
      </trkpt>
      <trkpt lat="45.08738" lon="2.72585">
        <ele>1399.900391</ele>
        <time>2008-08-28T12:30:17Z</time>
      </trkpt>
      <trkpt lat="45.08743" lon="2.72572">
        <ele>1401.014648</ele>
        <time>2008-08-28T12:30:29Z</time>
      </trkpt>
      <trkpt lat="45.0875" lon="2.72561">
        <ele>1401.657959</ele>
        <time>2008-08-28T12:30:40Z</time>
      </trkpt>
      <trkpt lat="45.08756" lon="2.72549">
        <ele>1402.467529</ele>
        <time>2008-08-28T12:31:00Z</time>
      </trkpt>
      <trkpt lat="45.08763" lon="2.72538">
        <ele>1403.10791</ele>
        <time>2008-08-28T12:33:35Z</time>
      </trkpt>
      <trkpt lat="45.08762" lon="2.72523">
        <ele>1405.136719</ele>
        <time>2008-08-28T12:34:01Z</time>
      </trkpt>
      <trkpt lat="45.08763" lon="2.72508">
        <ele>1407.10144</ele>
        <time>2008-08-28T12:34:15Z</time>
      </trkpt>
      <trkpt lat="45.08766" lon="2.72495">
        <ele>1409.310181</ele>
        <time>2008-08-28T12:34:31Z</time>
      </trkpt>
      <trkpt lat="45.08771" lon="2.72482">
        <ele>1410.145752</ele>
        <time>2008-08-28T12:34:39Z</time>
      </trkpt>
      <trkpt lat="45.08776" lon="2.72468">
        <ele>1411.178955</ele>
        <time>2008-08-28T12:34:47Z</time>
      </trkpt>
      <trkpt lat="45.08778" lon="2.72453">
        <ele>1413.415649</ele>
        <time>2008-08-28T12:34:54Z</time>
      </trkpt>
      <trkpt lat="45.08782" lon="2.72438">
        <ele>1415.989746</ele>
        <time>2008-08-28T12:35:02Z</time>
      </trkpt>
      <trkpt lat="45.08787" lon="2.72426">
        <ele>1417.716919</ele>
        <time>2008-08-28T12:35:11Z</time>
      </trkpt>
      <trkpt lat="45.08796" lon="2.72418">
        <ele>1416.855957</ele>
        <time>2008-08-28T12:35:20Z</time>
      </trkpt>
      <trkpt lat="45.08806" lon="2.72408">
        <ele>1415.587646</ele>
        <time>2008-08-28T12:35:29Z</time>
      </trkpt>
      <trkpt lat="45.08815" lon="2.724">
        <ele>1414.396362</ele>
        <time>2008-08-28T12:35:34Z</time>
      </trkpt>
      <trkpt lat="45.08822" lon="2.72389">
        <ele>1415.415039</ele>
        <time>2008-08-28T12:35:42Z</time>
      </trkpt>
      <trkpt lat="45.08833" lon="2.72384">
        <ele>1414.37793</ele>
        <time>2008-08-28T12:35:49Z</time>
      </trkpt>
      <trkpt lat="45.08843" lon="2.72379">
        <ele>1413.191406</ele>
        <time>2008-08-28T12:35:56Z</time>
      </trkpt>
      <trkpt lat="45.08851" lon="2.72368">
        <ele>1414.587402</ele>
        <time>2008-08-28T12:36:05Z</time>
      </trkpt>
      <trkpt lat="45.08859" lon="2.72358">
        <ele>1415.75769</ele>
        <time>2008-08-28T12:36:12Z</time>
      </trkpt>
      <trkpt lat="45.08868" lon="2.72349">
        <ele>1417.481934</ele>
        <time>2008-08-28T12:36:20Z</time>
      </trkpt>
      <trkpt lat="45.08873" lon="2.72337">
        <ele>1420.840942</ele>
        <time>2008-08-28T12:36:37Z</time>
      </trkpt>
      <trkpt lat="45.08876" lon="2.72323">
        <ele>1425.028809</ele>
        <time>2008-08-28T12:36:53Z</time>
      </trkpt>
      <trkpt lat="45.08869" lon="2.7231">
        <ele>1431.28894</ele>
        <time>2008-08-28T12:37:06Z</time>
      </trkpt>
      <trkpt lat="45.08873" lon="2.72296">
        <ele>1435.90271</ele>
        <time>2008-08-28T12:37:17Z</time>
      </trkpt>
      <trkpt lat="45.08882" lon="2.72285">
        <ele>1438.753174</ele>
        <time>2008-08-28T12:37:28Z</time>
      </trkpt>
      <trkpt lat="45.08891" lon="2.72278">
        <ele>1439.312866</ele>
        <time>2008-08-28T12:37:38Z</time>
      </trkpt>
      <trkpt lat="45.089" lon="2.72268">
        <ele>1440.754028</ele>
        <time>2008-08-28T12:37:53Z</time>
      </trkpt>
      <trkpt lat="45.08911" lon="2.72261">
        <ele>1441.591431</ele>
        <time>2008-08-28T12:38:00Z</time>
      </trkpt>
      <trkpt lat="45.08922" lon="2.72258">
        <ele>1441.263428</ele>
        <time>2008-08-28T12:38:11Z</time>
      </trkpt>
      <trkpt lat="45.08928" lon="2.72247">
        <ele>1443.22998</ele>
        <time>2008-08-28T12:38:26Z</time>
      </trkpt>
      <trkpt lat="45.08936" lon="2.72238">
        <ele>1444.19165</ele>
        <time>2008-08-28T12:38:37Z</time>
      </trkpt>
      <trkpt lat="45.08941" lon="2.72225">
        <ele>1446.488647</ele>
        <time>2008-08-28T12:38:49Z</time>
      </trkpt>
      <trkpt lat="45.08943" lon="2.7221">
        <ele>1449.283569</ele>
        <time>2008-08-28T12:39:00Z</time>
      </trkpt>
      <trkpt lat="45.08943" lon="2.72195">
        <ele>1452.415283</ele>
        <time>2008-08-28T12:39:10Z</time>
      </trkpt>
      <trkpt lat="45.08939" lon="2.72182">
        <ele>1455.621216</ele>
        <time>2008-08-28T12:39:21Z</time>
      </trkpt>
      <trkpt lat="45.08941" lon="2.72167">
        <ele>1457.380249</ele>
        <time>2008-08-28T12:39:31Z</time>
      </trkpt>
      <trkpt lat="45.08943" lon="2.72151">
        <ele>1459.535522</ele>
        <time>2008-08-28T12:39:43Z</time>
      </trkpt>
      <trkpt lat="45.08943" lon="2.72137">
        <ele>1461.816772</ele>
        <time>2008-08-28T12:39:53Z</time>
      </trkpt>
      <trkpt lat="45.08943" lon="2.72121">
        <ele>1464.416016</ele>
        <time>2008-08-28T12:40:03Z</time>
      </trkpt>
      <trkpt lat="45.08944" lon="2.72107">
        <ele>1467.060181</ele>
        <time>2008-08-28T12:40:14Z</time>
      </trkpt>
      <trkpt lat="45.08952" lon="2.72097">
        <ele>1465.458984</ele>
        <time>2008-08-28T12:40:25Z</time>
      </trkpt>
      <trkpt lat="45.08959" lon="2.72087">
        <ele>1464.653564</ele>
        <time>2008-08-28T12:40:33Z</time>
      </trkpt>
      <trkpt lat="45.08963" lon="2.72073">
        <ele>1465.724121</ele>
        <time>2008-08-28T12:40:44Z</time>
      </trkpt>
      <trkpt lat="45.08961" lon="2.72058">
        <ele>1470.088501</ele>
        <time>2008-08-28T12:40:52Z</time>
      </trkpt>
      <trkpt lat="45.08963" lon="2.72044">
        <ele>1473.35791</ele>
        <time>2008-08-28T12:41:03Z</time>
      </trkpt>
      <trkpt lat="45.08963" lon="2.7203">
        <ele>1477.391357</ele>
        <time>2008-08-28T12:41:11Z</time>
      </trkpt>
      <trkpt lat="45.08966" lon="2.72016">
        <ele>1480.103394</ele>
        <time>2008-08-28T12:41:22Z</time>
      </trkpt>
      <trkpt lat="45.08978" lon="2.72014">
        <ele>1475.556396</ele>
        <time>2008-08-28T12:41:30Z</time>
      </trkpt>
      <trkpt lat="45.08985" lon="2.72005">
        <ele>1474.793823</ele>
        <time>2008-08-28T12:41:37Z</time>
      </trkpt>
      <trkpt lat="45.08993" lon="2.71995">
        <ele>1475.16687</ele>
        <time>2008-08-28T12:41:46Z</time>
      </trkpt>
      <trkpt lat="45.09001" lon="2.71986">
        <ele>1474.69165</ele>
        <time>2008-08-28T12:41:53Z</time>
      </trkpt>
      <trkpt lat="45.09004" lon="2.71971">
        <ele>1478.261963</ele>
        <time>2008-08-28T12:42:06Z</time>
      </trkpt>
      <trkpt lat="45.09009" lon="2.71957">
        <ele>1481.214478</ele>
        <time>2008-08-28T12:42:18Z</time>
      </trkpt>
      <trkpt lat="45.09013" lon="2.71943">
        <ele>1484.997803</ele>
        <time>2008-08-28T12:42:30Z</time>
      </trkpt>
      <trkpt lat="45.09016" lon="2.71928">
        <ele>1487.711426</ele>
        <time>2008-08-28T12:42:42Z</time>
      </trkpt>
      <trkpt lat="45.09022" lon="2.71915">
        <ele>1489.638428</ele>
        <time>2008-08-28T12:42:50Z</time>
      </trkpt>
      <trkpt lat="45.09024" lon="2.719">
        <ele>1492.733276</ele>
        <time>2008-08-28T12:43:00Z</time>
      </trkpt>
      <trkpt lat="45.09025" lon="2.71886">
        <ele>1496.383057</ele>
        <time>2008-08-28T12:43:10Z</time>
      </trkpt>
      <trkpt lat="45.09023" lon="2.71872">
        <ele>1500.485474</ele>
        <time>2008-08-28T12:43:20Z</time>
      </trkpt>
      <trkpt lat="45.09021" lon="2.71858">
        <ele>1503.697266</ele>
        <time>2008-08-28T12:43:30Z</time>
      </trkpt>
      <trkpt lat="45.09023" lon="2.71844">
        <ele>1505.494873</ele>
        <time>2008-08-28T12:43:48Z</time>
      </trkpt>
      <trkpt lat="45.09026" lon="2.7183">
        <ele>1506.645508</ele>
        <time>2008-08-28T12:44:00Z</time>
      </trkpt>
      <trkpt lat="45.0903" lon="2.71817">
        <ele>1507.343872</ele>
        <time>2008-08-28T12:44:10Z</time>
      </trkpt>
      <trkpt lat="45.09036" lon="2.71803">
        <ele>1508.079224</ele>
        <time>2008-08-28T12:44:20Z</time>
      </trkpt>
      <trkpt lat="45.0904" lon="2.7179">
        <ele>1509.221069</ele>
        <time>2008-08-28T12:44:30Z</time>
      </trkpt>
      <trkpt lat="45.09047" lon="2.71777">
        <ele>1510.287842</ele>
        <time>2008-08-28T12:44:41Z</time>
      </trkpt>
      <trkpt lat="45.09054" lon="2.71767">
        <ele>1510.903198</ele>
        <time>2008-08-28T12:44:57Z</time>
      </trkpt>
      <trkpt lat="45.09062" lon="2.71758">
        <ele>1511.173828</ele>
        <time>2008-08-28T12:45:10Z</time>
      </trkpt>
      <trkpt lat="45.09067" lon="2.71745">
        <ele>1513.411133</ele>
        <time>2008-08-28T12:45:21Z</time>
      </trkpt>
      <trkpt lat="45.09074" lon="2.71734">
        <ele>1514.932861</ele>
        <time>2008-08-28T12:45:32Z</time>
      </trkpt>
      <trkpt lat="45.09081" lon="2.71724">
        <ele>1516.525146</ele>
        <time>2008-08-28T12:45:42Z</time>
      </trkpt>
      <trkpt lat="45.0909" lon="2.71717">
        <ele>1517.799194</ele>
        <time>2008-08-28T12:45:52Z</time>
      </trkpt>
      <trkpt lat="45.09099" lon="2.71713">
        <ele>1518.547485</ele>
        <time>2008-08-28T12:46:03Z</time>
      </trkpt>
      <trkpt lat="45.09109" lon="2.71711">
        <ele>1519.043823</ele>
        <time>2008-08-28T12:46:13Z</time>
      </trkpt>
      <trkpt lat="45.0912" lon="2.7171">
        <ele>1519.025024</ele>
        <time>2008-08-28T12:46:23Z</time>
      </trkpt>
      <trkpt lat="45.0913" lon="2.71708">
        <ele>1519.282349</ele>
        <time>2008-08-28T12:46:34Z</time>
      </trkpt>
      <trkpt lat="45.0914" lon="2.71709">
        <ele>1518.858643</ele>
        <time>2008-08-28T12:47:25Z</time>
      </trkpt>
      <trkpt lat="45.09151" lon="2.71705">
        <ele>1519.675293</ele>
        <time>2008-08-28T12:47:36Z</time>
      </trkpt>
      <trkpt lat="45.09162" lon="2.71703">
        <ele>1520.151001</ele>
        <time>2008-08-28T12:47:46Z</time>
      </trkpt>
      <trkpt lat="45.09172" lon="2.71699">
        <ele>1520.752441</ele>
        <time>2008-08-28T12:47:56Z</time>
      </trkpt>
      <trkpt lat="45.09183" lon="2.71696">
        <ele>1521.407104</ele>
        <time>2008-08-28T12:48:06Z</time>
      </trkpt>
      <trkpt lat="45.09193" lon="2.71691">
        <ele>1522.653564</ele>
        <time>2008-08-28T12:48:15Z</time>
      </trkpt>
      <trkpt lat="45.09202" lon="2.71685">
        <ele>1523.555054</ele>
        <time>2008-08-28T12:48:23Z</time>
      </trkpt>
      <trkpt lat="45.09212" lon="2.7168">
        <ele>1523.978882</ele>
        <time>2008-08-28T12:48:31Z</time>
      </trkpt>
      <trkpt lat="45.09223" lon="2.71678">
        <ele>1524.43457</ele>
        <time>2008-08-28T12:48:39Z</time>
      </trkpt>
      <trkpt lat="45.09233" lon="2.71672">
        <ele>1526.425903</ele>
        <time>2008-08-28T12:48:50Z</time>
      </trkpt>
      <trkpt lat="45.09244" lon="2.71669">
        <ele>1527.926758</ele>
        <time>2008-08-28T12:48:59Z</time>
      </trkpt>
      <trkpt lat="45.09254" lon="2.71669">
        <ele>1529.262695</ele>
        <time>2008-08-28T12:49:07Z</time>
      </trkpt>
      <trkpt lat="45.09264" lon="2.7167">
        <ele>1530.675659</ele>
        <time>2008-08-28T12:49:16Z</time>
      </trkpt>
      <trkpt lat="45.09274" lon="2.71676">
        <ele>1531.64563</ele>
        <time>2008-08-28T12:49:26Z</time>
      </trkpt>
      <trkpt lat="45.09283" lon="2.71681">
        <ele>1532.604126</ele>
        <time>2008-08-28T12:49:36Z</time>
      </trkpt>
      <trkpt lat="45.09293" lon="2.71681">
        <ele>1532.918823</ele>
        <time>2008-08-28T12:49:53Z</time>
      </trkpt>
      <trkpt lat="45.09303" lon="2.71687">
        <ele>1534.095581</ele>
        <time>2008-08-28T12:50:19Z</time>
      </trkpt>
      <trkpt lat="45.09312" lon="2.7169">
        <ele>1534.908813</ele>
        <time>2008-08-28T12:51:40Z</time>
      </trkpt>
      <trkpt lat="45.09323" lon="2.71693">
        <ele>1534.515625</ele>
        <time>2008-08-28T12:57:42Z</time>
      </trkpt>
      <trkpt lat="45.09331" lon="2.71702">
        <ele>1534.64917</ele>
        <time>2008-08-28T12:57:52Z</time>
      </trkpt>
      <trkpt lat="45.0934" lon="2.71708">
        <ele>1535.063965</ele>
        <time>2008-08-28T12:58:02Z</time>
      </trkpt>
      <trkpt lat="45.0935" lon="2.71715">
        <ele>1535.954712</ele>
        <time>2008-08-28T12:58:12Z</time>
      </trkpt>
      <trkpt lat="45.0936" lon="2.71717">
        <ele>1536.217407</ele>
        <time>2008-08-28T12:58:21Z</time>
      </trkpt>
      <trkpt lat="45.0937" lon="2.7172">
        <ele>1536.394409</ele>
        <time>2008-08-28T12:58:31Z</time>
      </trkpt>
      <trkpt lat="45.0938" lon="2.71722">
        <ele>1536.555542</ele>
        <time>2008-08-28T12:58:40Z</time>
      </trkpt>
      <trkpt lat="45.09391" lon="2.71727">
        <ele>1537.684204</ele>
        <time>2008-08-28T12:58:49Z</time>
      </trkpt>
      <trkpt lat="45.09399" lon="2.71735">
        <ele>1539.834717</ele>
        <time>2008-08-28T12:58:58Z</time>
      </trkpt>
      <trkpt lat="45.09408" lon="2.71741">
        <ele>1540.865234</ele>
        <time>2008-08-28T12:59:07Z</time>
      </trkpt>
      <trkpt lat="45.09418" lon="2.71748">
        <ele>1541.887207</ele>
        <time>2008-08-28T12:59:16Z</time>
      </trkpt>
      <trkpt lat="45.09428" lon="2.71749">
        <ele>1541.648926</ele>
        <time>2008-08-28T12:59:25Z</time>
      </trkpt>
      <trkpt lat="45.09439" lon="2.71753">
        <ele>1541.928589</ele>
        <time>2008-08-28T12:59:35Z</time>
      </trkpt>
      <trkpt lat="45.09449" lon="2.71756">
        <ele>1541.939941</ele>
        <time>2008-08-28T12:59:44Z</time>
      </trkpt>
      <trkpt lat="45.09459" lon="2.7176">
        <ele>1542.341919</ele>
        <time>2008-08-28T12:59:53Z</time>
      </trkpt>
      <trkpt lat="45.09468" lon="2.71766">
        <ele>1543.317017</ele>
        <time>2008-08-28T13:00:04Z</time>
      </trkpt>
      <trkpt lat="45.09478" lon="2.71766">
        <ele>1542.390137</ele>
        <time>2008-08-28T13:00:15Z</time>
      </trkpt>
      <trkpt lat="45.09489" lon="2.71766">
        <ele>1541.408691</ele>
        <time>2008-08-28T13:00:25Z</time>
      </trkpt>
      <trkpt lat="45.09499" lon="2.71766">
        <ele>1540.043335</ele>
        <time>2008-08-28T13:00:35Z</time>
      </trkpt>
      <trkpt lat="45.0951" lon="2.71766">
        <ele>1538.708984</ele>
        <time>2008-08-28T13:00:44Z</time>
      </trkpt>
      <trkpt lat="45.0952" lon="2.71766">
        <ele>1537.219116</ele>
        <time>2008-08-28T13:00:53Z</time>
      </trkpt>
      <trkpt lat="45.0953" lon="2.71765">
        <ele>1535.810913</ele>
        <time>2008-08-28T13:01:02Z</time>
      </trkpt>
      <trkpt lat="45.0954" lon="2.71766">
        <ele>1535.114014</ele>
        <time>2008-08-28T13:01:11Z</time>
      </trkpt>
      <trkpt lat="45.0955" lon="2.71766">
        <ele>1534.825806</ele>
        <time>2008-08-28T13:01:20Z</time>
      </trkpt>
      <trkpt lat="45.09559" lon="2.71775">
        <ele>1535.225952</ele>
        <time>2008-08-28T13:01:31Z</time>
      </trkpt>
      <trkpt lat="45.09569" lon="2.71779">
        <ele>1535.106445</ele>
        <time>2008-08-28T13:01:41Z</time>
      </trkpt>
      <trkpt lat="45.09578" lon="2.71786">
        <ele>1535.037598</ele>
        <time>2008-08-28T13:01:51Z</time>
      </trkpt>
      <trkpt lat="45.09584" lon="2.71798">
        <ele>1536.368896</ele>
        <time>2008-08-28T13:02:01Z</time>
      </trkpt>
      <trkpt lat="45.09589" lon="2.7181">
        <ele>1538.075073</ele>
        <time>2008-08-28T13:02:12Z</time>
      </trkpt>
      <trkpt lat="45.09594" lon="2.71823">
        <ele>1538.810791</ele>
        <time>2008-08-28T13:02:25Z</time>
      </trkpt>
      <trkpt lat="45.096" lon="2.71836">
        <ele>1537.36145</ele>
        <time>2008-08-28T13:02:35Z</time>
      </trkpt>
      <trkpt lat="45.09608" lon="2.71845">
        <ele>1537.015381</ele>
        <time>2008-08-28T13:02:45Z</time>
      </trkpt>
      <trkpt lat="45.09617" lon="2.71855">
        <ele>1536.536011</ele>
        <time>2008-08-28T13:02:55Z</time>
      </trkpt>
      <trkpt lat="45.09627" lon="2.71861">
        <ele>1537.025024</ele>
        <time>2008-08-28T13:03:05Z</time>
      </trkpt>
      <trkpt lat="45.09636" lon="2.71868">
        <ele>1537.760132</ele>
        <time>2008-08-28T13:03:15Z</time>
      </trkpt>
      <trkpt lat="45.09646" lon="2.71874">
        <ele>1538.408813</ele>
        <time>2008-08-28T13:03:25Z</time>
      </trkpt>
      <trkpt lat="45.09656" lon="2.7188">
        <ele>1539.196045</ele>
        <time>2008-08-28T13:03:36Z</time>
      </trkpt>
      <trkpt lat="45.09666" lon="2.71883">
        <ele>1540.12793</ele>
        <time>2008-08-28T13:03:46Z</time>
      </trkpt>
      <trkpt lat="45.09674" lon="2.71891">
        <ele>1538.451904</ele>
        <time>2008-08-28T13:03:57Z</time>
      </trkpt>
      <trkpt lat="45.09684" lon="2.71898">
        <ele>1537.701172</ele>
        <time>2008-08-28T13:04:07Z</time>
      </trkpt>
      <trkpt lat="45.09692" lon="2.71908">
        <ele>1534.825928</ele>
        <time>2008-08-28T13:04:17Z</time>
      </trkpt>
      <trkpt lat="45.09699" lon="2.71918">
        <ele>1531.355957</ele>
        <time>2008-08-28T13:04:27Z</time>
      </trkpt>
      <trkpt lat="45.09707" lon="2.71927">
        <ele>1528.825806</ele>
        <time>2008-08-28T13:04:37Z</time>
      </trkpt>
      <trkpt lat="45.09714" lon="2.71937">
        <ele>1525.521729</ele>
        <time>2008-08-28T13:04:46Z</time>
      </trkpt>
      <trkpt lat="45.09722" lon="2.71945">
        <ele>1523.377686</ele>
        <time>2008-08-28T13:04:54Z</time>
      </trkpt>
      <trkpt lat="45.09732" lon="2.7195">
        <ele>1523.438843</ele>
        <time>2008-08-28T13:05:03Z</time>
      </trkpt>
      <trkpt lat="45.09741" lon="2.71958">
        <ele>1522.387085</ele>
        <time>2008-08-28T13:05:13Z</time>
      </trkpt>
      <trkpt lat="45.09749" lon="2.71967">
        <ele>1521.266602</ele>
        <time>2008-08-28T13:05:26Z</time>
      </trkpt>
      <trkpt lat="45.09758" lon="2.71973">
        <ele>1521.495483</ele>
        <time>2008-08-28T13:05:36Z</time>
      </trkpt>
      <trkpt lat="45.09768" lon="2.71979">
        <ele>1523.445923</ele>
        <time>2008-08-28T13:05:46Z</time>
      </trkpt>
      <trkpt lat="45.09777" lon="2.71983">
        <ele>1526.282959</ele>
        <time>2008-08-28T13:05:55Z</time>
      </trkpt>
      <trkpt lat="45.09787" lon="2.71989">
        <ele>1528.615479</ele>
        <time>2008-08-28T13:06:05Z</time>
      </trkpt>
      <trkpt lat="45.09797" lon="2.71993">
        <ele>1532.091309</ele>
        <time>2008-08-28T13:06:15Z</time>
      </trkpt>
      <trkpt lat="45.09805" lon="2.72002">
        <ele>1533.775391</ele>
        <time>2008-08-28T13:06:28Z</time>
      </trkpt>
      <trkpt lat="45.09806" lon="2.72017">
        <ele>1531.514404</ele>
        <time>2008-08-28T13:06:39Z</time>
      </trkpt>
      <trkpt lat="45.09806" lon="2.72032">
        <ele>1529.87915</ele>
        <time>2008-08-28T13:06:51Z</time>
      </trkpt>
      <trkpt lat="45.09805" lon="2.72047">
        <ele>1527.619507</ele>
        <time>2008-08-28T13:07:03Z</time>
      </trkpt>
      <trkpt lat="45.09805" lon="2.72061">
        <ele>1526.064819</ele>
        <time>2008-08-28T13:07:14Z</time>
      </trkpt>
      <trkpt lat="45.09807" lon="2.72075">
        <ele>1525.84082</ele>
        <time>2008-08-28T13:07:24Z</time>
      </trkpt>
      <trkpt lat="45.09812" lon="2.72088">
        <ele>1526.028564</ele>
        <time>2008-08-28T13:07:34Z</time>
      </trkpt>
      <trkpt lat="45.09818" lon="2.72101">
        <ele>1526.935791</ele>
        <time>2008-08-28T13:07:44Z</time>
      </trkpt>
      <trkpt lat="45.09827" lon="2.72109">
        <ele>1530.92334</ele>
        <time>2008-08-28T13:07:54Z</time>
      </trkpt>
      <trkpt lat="45.09833" lon="2.7212">
        <ele>1532.098755</ele>
        <time>2008-08-28T13:08:03Z</time>
      </trkpt>
      <trkpt lat="45.09839" lon="2.72133">
        <ele>1533.181152</ele>
        <time>2008-08-28T13:08:13Z</time>
      </trkpt>
      <trkpt lat="45.09841" lon="2.72146">
        <ele>1533.19397</ele>
        <time>2008-08-28T13:08:24Z</time>
      </trkpt>
      <trkpt lat="45.09842" lon="2.72161">
        <ele>1532.864136</ele>
        <time>2008-08-28T13:08:34Z</time>
      </trkpt>
      <trkpt lat="45.09842" lon="2.72175">
        <ele>1531.525024</ele>
        <time>2008-08-28T13:08:45Z</time>
      </trkpt>
      <trkpt lat="45.09847" lon="2.72189">
        <ele>1533.268311</ele>
        <time>2008-08-28T13:08:56Z</time>
      </trkpt>
      <trkpt lat="45.09848" lon="2.72204">
        <ele>1532.54126</ele>
        <time>2008-08-28T13:09:07Z</time>
      </trkpt>
      <trkpt lat="45.09852" lon="2.72217">
        <ele>1531.878906</ele>
        <time>2008-08-28T13:09:17Z</time>
      </trkpt>
      <trkpt lat="45.09856" lon="2.7223">
        <ele>1531.677246</ele>
        <time>2008-08-28T13:09:27Z</time>
      </trkpt>
      <trkpt lat="45.09864" lon="2.72241">
        <ele>1533.449951</ele>
        <time>2008-08-28T13:09:37Z</time>
      </trkpt>
      <trkpt lat="45.09872" lon="2.7225">
        <ele>1535.491943</ele>
        <time>2008-08-28T13:09:46Z</time>
      </trkpt>
      <trkpt lat="45.09879" lon="2.7226">
        <ele>1537.365356</ele>
        <time>2008-08-28T13:09:56Z</time>
      </trkpt>
      <trkpt lat="45.09887" lon="2.7227">
        <ele>1539.067871</ele>
        <time>2008-08-28T13:10:07Z</time>
      </trkpt>
      <trkpt lat="45.09895" lon="2.72279">
        <ele>1541.895264</ele>
        <time>2008-08-28T13:10:19Z</time>
      </trkpt>
      <trkpt lat="45.09903" lon="2.72288">
        <ele>1544.902588</ele>
        <time>2008-08-28T13:10:31Z</time>
      </trkpt>
      <trkpt lat="45.09909" lon="2.72299">
        <ele>1547.008911</ele>
        <time>2008-08-28T13:10:40Z</time>
      </trkpt>
      <trkpt lat="45.09912" lon="2.72313">
        <ele>1546.801025</ele>
        <time>2008-08-28T13:10:51Z</time>
      </trkpt>
      <trkpt lat="45.09916" lon="2.72326">
        <ele>1546.685181</ele>
        <time>2008-08-28T13:11:03Z</time>
      </trkpt>
      <trkpt lat="45.0992" lon="2.72339">
        <ele>1548.720825</ele>
        <time>2008-08-28T13:11:15Z</time>
      </trkpt>
      <trkpt lat="45.09924" lon="2.72353">
        <ele>1550.502563</ele>
        <time>2008-08-28T13:11:27Z</time>
      </trkpt>
      <trkpt lat="45.0993" lon="2.72365">
        <ele>1553.953613</ele>
        <time>2008-08-28T13:11:39Z</time>
      </trkpt>
      <trkpt lat="45.09933" lon="2.72378">
        <ele>1555.230225</ele>
        <time>2008-08-28T13:11:52Z</time>
      </trkpt>
      <trkpt lat="45.09937" lon="2.72392">
        <ele>1556.819824</ele>
        <time>2008-08-28T13:12:06Z</time>
      </trkpt>
      <trkpt lat="45.0994" lon="2.72405">
        <ele>1557.496826</ele>
        <time>2008-08-28T13:12:20Z</time>
      </trkpt>
      <trkpt lat="45.0994" lon="2.7242">
        <ele>1556.444946</ele>
        <time>2008-08-28T13:12:33Z</time>
      </trkpt>
      <trkpt lat="45.09944" lon="2.72433">
        <ele>1557.630493</ele>
        <time>2008-08-28T13:12:45Z</time>
      </trkpt>
      <trkpt lat="45.0995" lon="2.72445">
        <ele>1561.644165</ele>
        <time>2008-08-28T13:12:57Z</time>
      </trkpt>
      <trkpt lat="45.09956" lon="2.72455">
        <ele>1565.682983</ele>
        <time>2008-08-28T13:13:06Z</time>
      </trkpt>
      <trkpt lat="45.09961" lon="2.72468">
        <ele>1568.685425</ele>
        <time>2008-08-28T13:13:16Z</time>
      </trkpt>
      <trkpt lat="45.09965" lon="2.72482">
        <ele>1571.818237</ele>
        <time>2008-08-28T13:13:29Z</time>
      </trkpt>
      <trkpt lat="45.09972" lon="2.72492">
        <ele>1577.025269</ele>
        <time>2008-08-28T13:13:42Z</time>
      </trkpt>
      <trkpt lat="45.09977" lon="2.72505">
        <ele>1581.261719</ele>
        <time>2008-08-28T13:13:54Z</time>
      </trkpt>
      <trkpt lat="45.09981" lon="2.72518">
        <ele>1585.058105</ele>
        <time>2008-08-28T13:14:07Z</time>
      </trkpt>
      <trkpt lat="45.09986" lon="2.72531">
        <ele>1588.105469</ele>
        <time>2008-08-28T13:14:18Z</time>
      </trkpt>
      <trkpt lat="45.09993" lon="2.72543">
        <ele>1593.525635</ele>
        <time>2008-08-28T13:14:29Z</time>
      </trkpt>
      <trkpt lat="45.09998" lon="2.72555">
        <ele>1597.459839</ele>
        <time>2008-08-28T13:14:40Z</time>
      </trkpt>
      <trkpt lat="45.1" lon="2.7257">
        <ele>1598.418579</ele>
        <time>2008-08-28T13:14:51Z</time>
      </trkpt>
      <trkpt lat="45.10001" lon="2.72586">
        <ele>1599.749756</ele>
        <time>2008-08-28T13:15:02Z</time>
      </trkpt>
      <trkpt lat="45.10003" lon="2.726">
        <ele>1602.067017</ele>
        <time>2008-08-28T13:15:13Z</time>
      </trkpt>
      <trkpt lat="45.10004" lon="2.72614">
        <ele>1603.964844</ele>
        <time>2008-08-28T13:15:23Z</time>
      </trkpt>
      <trkpt lat="45.10001" lon="2.72628">
        <ele>1602.86792</ele>
        <time>2008-08-28T13:15:35Z</time>
      </trkpt>
      <trkpt lat="45.09997" lon="2.72641">
        <ele>1602.097046</ele>
        <time>2008-08-28T13:15:47Z</time>
      </trkpt>
      <trkpt lat="45.09994" lon="2.72656">
        <ele>1603.809204</ele>
        <time>2008-08-28T13:15:59Z</time>
      </trkpt>
      <trkpt lat="45.09992" lon="2.72669">
        <ele>1606.189575</ele>
        <time>2008-08-28T13:16:11Z</time>
      </trkpt>
      <trkpt lat="45.09989" lon="2.72683">
        <ele>1608.540039</ele>
        <time>2008-08-28T13:16:24Z</time>
      </trkpt>
      <trkpt lat="45.09984" lon="2.72695">
        <ele>1610.298096</ele>
        <time>2008-08-28T13:16:38Z</time>
      </trkpt>
      <trkpt lat="45.09978" lon="2.72708">
        <ele>1611.486816</ele>
        <time>2008-08-28T13:16:51Z</time>
      </trkpt>
      <trkpt lat="45.09973" lon="2.7272">
        <ele>1612.957397</ele>
        <time>2008-08-28T13:17:05Z</time>
      </trkpt>
      <trkpt lat="45.09967" lon="2.72733">
        <ele>1613.687378</ele>
        <time>2008-08-28T13:17:19Z</time>
      </trkpt>
      <trkpt lat="45.09961" lon="2.72745">
        <ele>1614.626099</ele>
        <time>2008-08-28T13:17:33Z</time>
      </trkpt>
      <trkpt lat="45.09958" lon="2.72759">
        <ele>1617.374756</ele>
        <time>2008-08-28T13:17:46Z</time>
      </trkpt>
      <trkpt lat="45.09951" lon="2.72771">
        <ele>1618.256714</ele>
        <time>2008-08-28T13:17:59Z</time>
      </trkpt>
      <trkpt lat="45.09942" lon="2.72778">
        <ele>1615.569458</ele>
        <time>2008-08-28T13:18:09Z</time>
      </trkpt>
      <trkpt lat="45.09938" lon="2.72791">
        <ele>1613.732422</ele>
        <time>2008-08-28T13:18:22Z</time>
      </trkpt>
      <trkpt lat="45.09936" lon="2.72805">
        <ele>1612.89563</ele>
        <time>2008-08-28T13:19:15Z</time>
      </trkpt>
      <trkpt lat="45.09946" lon="2.728">
        <ele>1617.367432</ele>
        <time>2008-08-28T13:29:16Z</time>
      </trkpt>
      <trkpt lat="45.09956" lon="2.72797">
        <ele>1621.815308</ele>
        <time>2008-08-28T13:29:27Z</time>
      </trkpt>
      <trkpt lat="45.09966" lon="2.72796">
        <ele>1626.264648</ele>
        <time>2008-08-28T13:29:41Z</time>
      </trkpt>
      <trkpt lat="45.09977" lon="2.72795">
        <ele>1630.700073</ele>
        <time>2008-08-28T13:29:56Z</time>
      </trkpt>
      <trkpt lat="45.09986" lon="2.72799">
        <ele>1633.645996</ele>
        <time>2008-08-28T13:30:11Z</time>
      </trkpt>
      <trkpt lat="45.09996" lon="2.72802">
        <ele>1635.483032</ele>
        <time>2008-08-28T13:30:27Z</time>
      </trkpt>
      <trkpt lat="45.10006" lon="2.72807">
        <ele>1637.133057</ele>
        <time>2008-08-28T13:30:40Z</time>
      </trkpt>
      <trkpt lat="45.10016" lon="2.72806">
        <ele>1638.83252</ele>
        <time>2008-08-28T13:30:57Z</time>
      </trkpt>
      <trkpt lat="45.10026" lon="2.72802">
        <ele>1640.491699</ele>
        <time>2008-08-28T13:31:11Z</time>
      </trkpt>
      <trkpt lat="45.10036" lon="2.728">
        <ele>1638.516968</ele>
        <time>2008-08-28T13:31:29Z</time>
      </trkpt>
      <trkpt lat="45.10045" lon="2.72805">
        <ele>1636.603271</ele>
        <time>2008-08-28T13:31:44Z</time>
      </trkpt>
      <trkpt lat="45.10047" lon="2.72819">
        <ele>1636.72583</ele>
        <time>2008-08-28T13:32:05Z</time>
      </trkpt>
      <trkpt lat="45.10054" lon="2.72828">
        <ele>1635.790894</ele>
        <time>2008-08-28T13:43:53Z</time>
      </trkpt>
      <trkpt lat="45.10051" lon="2.72842">
        <ele>1636.334229</ele>
        <time>2008-08-28T13:44:10Z</time>
      </trkpt>
      <trkpt lat="45.10052" lon="2.72856">
        <ele>1634.881104</ele>
        <time>2008-08-28T13:44:28Z</time>
      </trkpt>
      <trkpt lat="45.10055" lon="2.7287">
        <ele>1633.454346</ele>
        <time>2008-08-28T13:44:40Z</time>
      </trkpt>
      <trkpt lat="45.10061" lon="2.72881">
        <ele>1632.039551</ele>
        <time>2008-08-28T13:44:50Z</time>
      </trkpt>
      <trkpt lat="45.10067" lon="2.72893">
        <ele>1630.778809</ele>
        <time>2008-08-28T13:45:03Z</time>
      </trkpt>
      <trkpt lat="45.10075" lon="2.72901">
        <ele>1627.824585</ele>
        <time>2008-08-28T13:45:18Z</time>
      </trkpt>
      <trkpt lat="45.1008" lon="2.72914">
        <ele>1622.835938</ele>
        <time>2008-08-28T13:45:36Z</time>
      </trkpt>
      <trkpt lat="45.10082" lon="2.72928">
        <ele>1619.364624</ele>
        <time>2008-08-28T13:45:51Z</time>
      </trkpt>
      <trkpt lat="45.10084" lon="2.72942">
        <ele>1615.684448</ele>
        <time>2008-08-28T13:46:05Z</time>
      </trkpt>
      <trkpt lat="45.10087" lon="2.72956">
        <ele>1612.329468</ele>
        <time>2008-08-28T13:46:15Z</time>
      </trkpt>
      <trkpt lat="45.10088" lon="2.7297">
        <ele>1610.16687</ele>
        <time>2008-08-28T13:46:24Z</time>
      </trkpt>
      <trkpt lat="45.10089" lon="2.72985">
        <ele>1608.98645</ele>
        <time>2008-08-28T13:46:34Z</time>
      </trkpt>
      <trkpt lat="45.10089" lon="2.73">
        <ele>1607.940674</ele>
        <time>2008-08-28T13:46:44Z</time>
      </trkpt>
      <trkpt lat="45.10091" lon="2.73015">
        <ele>1606.865479</ele>
        <time>2008-08-28T13:46:55Z</time>
      </trkpt>
      <trkpt lat="45.10095" lon="2.7303">
        <ele>1606.010986</ele>
        <time>2008-08-28T13:47:06Z</time>
      </trkpt>
      <trkpt lat="45.10087" lon="2.73039">
        <ele>1606.223999</ele>
        <time>2008-08-28T13:47:21Z</time>
      </trkpt>
      <trkpt lat="45.10087" lon="2.73054">
        <ele>1606.531616</ele>
        <time>2008-08-28T13:48:33Z</time>
      </trkpt>
      <trkpt lat="45.10088" lon="2.73068">
        <ele>1606.859863</ele>
        <time>2008-08-28T13:48:44Z</time>
      </trkpt>
      <trkpt lat="45.10087" lon="2.73083">
        <ele>1607.16626</ele>
        <time>2008-08-28T13:48:55Z</time>
      </trkpt>
      <trkpt lat="45.10087" lon="2.73098">
        <ele>1607.297119</ele>
        <time>2008-08-28T13:49:06Z</time>
      </trkpt>
      <trkpt lat="45.10089" lon="2.73112">
        <ele>1607.18335</ele>
        <time>2008-08-28T13:49:17Z</time>
      </trkpt>
      <trkpt lat="45.10091" lon="2.73126">
        <ele>1607.168579</ele>
        <time>2008-08-28T13:49:28Z</time>
      </trkpt>
      <trkpt lat="45.1009" lon="2.7314">
        <ele>1606.947266</ele>
        <time>2008-08-28T13:49:39Z</time>
      </trkpt>
      <trkpt lat="45.10091" lon="2.73155">
        <ele>1606.906006</ele>
        <time>2008-08-28T13:49:49Z</time>
      </trkpt>
      <trkpt lat="45.10092" lon="2.7317">
        <ele>1609.685303</ele>
        <time>2008-08-28T13:49:59Z</time>
      </trkpt>
      <trkpt lat="45.10092" lon="2.73184">
        <ele>1612.468262</ele>
        <time>2008-08-28T13:50:08Z</time>
      </trkpt>
      <trkpt lat="45.10089" lon="2.73199">
        <ele>1615.285278</ele>
        <time>2008-08-28T13:50:19Z</time>
      </trkpt>
      <trkpt lat="45.10088" lon="2.73214">
        <ele>1618.050171</ele>
        <time>2008-08-28T13:50:30Z</time>
      </trkpt>
      <trkpt lat="45.10085" lon="2.73227">
        <ele>1621.129761</ele>
        <time>2008-08-28T13:50:40Z</time>
      </trkpt>
      <trkpt lat="45.1008" lon="2.73241">
        <ele>1624.485596</ele>
        <time>2008-08-28T13:50:51Z</time>
      </trkpt>
      <trkpt lat="45.10076" lon="2.73255">
        <ele>1628.079468</ele>
        <time>2008-08-28T13:51:03Z</time>
      </trkpt>
      <trkpt lat="45.10072" lon="2.73268">
        <ele>1631.382202</ele>
        <time>2008-08-28T13:51:13Z</time>
      </trkpt>
      <trkpt lat="45.10069" lon="2.73282">
        <ele>1634.489136</ele>
        <time>2008-08-28T13:51:24Z</time>
      </trkpt>
      <trkpt lat="45.10064" lon="2.73295">
        <ele>1632.740845</ele>
        <time>2008-08-28T13:51:35Z</time>
      </trkpt>
      <trkpt lat="45.10062" lon="2.73309">
        <ele>1632.333984</ele>
        <time>2008-08-28T13:51:46Z</time>
      </trkpt>
      <trkpt lat="45.10061" lon="2.73323">
        <ele>1632.565674</ele>
        <time>2008-08-28T13:51:58Z</time>
      </trkpt>
      <trkpt lat="45.10063" lon="2.73338">
        <ele>1633.849731</ele>
        <time>2008-08-28T13:52:09Z</time>
      </trkpt>
      <trkpt lat="45.10068" lon="2.7335">
        <ele>1636.932007</ele>
        <time>2008-08-28T13:52:23Z</time>
      </trkpt>
      <trkpt lat="45.1007" lon="2.73365">
        <ele>1636.92334</ele>
        <time>2008-08-28T13:52:32Z</time>
      </trkpt>
      <trkpt lat="45.10072" lon="2.73381">
        <ele>1636.628662</ele>
        <time>2008-08-28T13:52:44Z</time>
      </trkpt>
      <trkpt lat="45.10071" lon="2.73395">
        <ele>1635.425903</ele>
        <time>2008-08-28T13:52:54Z</time>
      </trkpt>
      <trkpt lat="45.1007" lon="2.73409">
        <ele>1634.393555</ele>
        <time>2008-08-28T13:53:05Z</time>
      </trkpt>
      <trkpt lat="45.1007" lon="2.73425">
        <ele>1637.60376</ele>
        <time>2008-08-28T13:53:15Z</time>
      </trkpt>
      <trkpt lat="45.1007" lon="2.73439">
        <ele>1640.615723</ele>
        <time>2008-08-28T13:53:24Z</time>
      </trkpt>
      <trkpt lat="45.10068" lon="2.73454">
        <ele>1643.453125</ele>
        <time>2008-08-28T13:53:33Z</time>
      </trkpt>
      <trkpt lat="45.10064" lon="2.73467">
        <ele>1645.088501</ele>
        <time>2008-08-28T13:53:46Z</time>
      </trkpt>
      <trkpt lat="45.10057" lon="2.73478">
        <ele>1645.418945</ele>
        <time>2008-08-28T13:53:58Z</time>
      </trkpt>
      <trkpt lat="45.1005" lon="2.73488">
        <ele>1645.290039</ele>
        <time>2008-08-28T13:54:10Z</time>
      </trkpt>
      <trkpt lat="45.10043" lon="2.73498">
        <ele>1645.23291</ele>
        <time>2008-08-28T13:54:21Z</time>
      </trkpt>
      <trkpt lat="45.10035" lon="2.73507">
        <ele>1644.366943</ele>
        <time>2008-08-28T13:54:32Z</time>
      </trkpt>
      <trkpt lat="45.10026" lon="2.73515">
        <ele>1643.189209</ele>
        <time>2008-08-28T13:54:43Z</time>
      </trkpt>
      <trkpt lat="45.10023" lon="2.7353">
        <ele>1644.548218</ele>
        <time>2008-08-28T13:54:54Z</time>
      </trkpt>
      <trkpt lat="45.10024" lon="2.73544">
        <ele>1647.173828</ele>
        <time>2008-08-28T13:55:07Z</time>
      </trkpt>
      <trkpt lat="45.10021" lon="2.73559">
        <ele>1647.834839</ele>
        <time>2008-08-28T13:55:21Z</time>
      </trkpt>
      <trkpt lat="45.10024" lon="2.73573">
        <ele>1651.35437</ele>
        <time>2008-08-28T13:55:31Z</time>
      </trkpt>
      <trkpt lat="45.10026" lon="2.73588">
        <ele>1653.674072</ele>
        <time>2008-08-28T13:55:41Z</time>
      </trkpt>
      <trkpt lat="45.10025" lon="2.73603">
        <ele>1655.372681</ele>
        <time>2008-08-28T13:55:51Z</time>
      </trkpt>
      <trkpt lat="45.10019" lon="2.73615">
        <ele>1654.776123</ele>
        <time>2008-08-28T13:56:02Z</time>
      </trkpt>
      <trkpt lat="45.10013" lon="2.73627">
        <ele>1654.07605</ele>
        <time>2008-08-28T13:56:15Z</time>
      </trkpt>
      <trkpt lat="45.10008" lon="2.73639">
        <ele>1654.690063</ele>
        <time>2008-08-28T13:56:27Z</time>
      </trkpt>
      <trkpt lat="45.10005" lon="2.73653">
        <ele>1656.531006</ele>
        <time>2008-08-28T13:56:38Z</time>
      </trkpt>
      <trkpt lat="45.10004" lon="2.73667">
        <ele>1658.803833</ele>
        <time>2008-08-28T13:56:51Z</time>
      </trkpt>
      <trkpt lat="45.1" lon="2.73681">
        <ele>1660.437988</ele>
        <time>2008-08-28T13:57:03Z</time>
      </trkpt>
      <trkpt lat="45.09993" lon="2.73692">
        <ele>1662.059937</ele>
        <time>2008-08-28T13:57:15Z</time>
      </trkpt>
      <trkpt lat="45.09987" lon="2.73703">
        <ele>1664.333862</ele>
        <time>2008-08-28T13:57:25Z</time>
      </trkpt>
      <trkpt lat="45.09981" lon="2.73716">
        <ele>1667.270142</ele>
        <time>2008-08-28T13:57:36Z</time>
      </trkpt>
      <trkpt lat="45.09977" lon="2.73729">
        <ele>1670.088379</ele>
        <time>2008-08-28T13:57:47Z</time>
      </trkpt>
      <trkpt lat="45.0997" lon="2.7374">
        <ele>1670.671509</ele>
        <time>2008-08-28T13:57:58Z</time>
      </trkpt>
      <trkpt lat="45.09965" lon="2.73752">
        <ele>1671.990967</ele>
        <time>2008-08-28T13:58:10Z</time>
      </trkpt>
      <trkpt lat="45.09958" lon="2.73763">
        <ele>1673.725342</ele>
        <time>2008-08-28T13:58:22Z</time>
      </trkpt>
      <trkpt lat="45.09951" lon="2.73772">
        <ele>1675.893066</ele>
        <time>2008-08-28T13:58:34Z</time>
      </trkpt>
      <trkpt lat="45.09944" lon="2.73781">
        <ele>1678.467407</ele>
        <time>2008-08-28T13:58:45Z</time>
      </trkpt>
      <trkpt lat="45.09935" lon="2.73789">
        <ele>1681.321899</ele>
        <time>2008-08-28T13:58:55Z</time>
      </trkpt>
      <trkpt lat="45.09932" lon="2.73803">
        <ele>1681.906494</ele>
        <time>2008-08-28T13:59:06Z</time>
      </trkpt>
      <trkpt lat="45.09935" lon="2.73817">
        <ele>1682.089722</ele>
        <time>2008-08-28T13:59:16Z</time>
      </trkpt>
      <trkpt lat="45.09937" lon="2.73833">
        <ele>1682.111816</ele>
        <time>2008-08-28T13:59:26Z</time>
      </trkpt>
      <trkpt lat="45.09938" lon="2.73848">
        <ele>1682.224365</ele>
        <time>2008-08-28T13:59:38Z</time>
      </trkpt>
      <trkpt lat="45.09937" lon="2.73862">
        <ele>1682.479736</ele>
        <time>2008-08-28T13:59:49Z</time>
      </trkpt>
      <trkpt lat="45.09936" lon="2.73877">
        <ele>1682.622314</ele>
        <time>2008-08-28T13:59:59Z</time>
      </trkpt>
      <trkpt lat="45.09937" lon="2.73891">
        <ele>1682.576782</ele>
        <time>2008-08-28T14:00:10Z</time>
      </trkpt>
      <trkpt lat="45.09939" lon="2.73905">
        <ele>1682.360962</ele>
        <time>2008-08-28T14:00:21Z</time>
      </trkpt>
      <trkpt lat="45.09943" lon="2.7392">
        <ele>1682.026001</ele>
        <time>2008-08-28T14:00:31Z</time>
      </trkpt>
      <trkpt lat="45.09945" lon="2.73934">
        <ele>1681.824341</ele>
        <time>2008-08-28T14:00:41Z</time>
      </trkpt>
      <trkpt lat="45.09942" lon="2.73948">
        <ele>1681.967163</ele>
        <time>2008-08-28T14:00:52Z</time>
      </trkpt>
      <trkpt lat="45.09937" lon="2.73961">
        <ele>1682.086304</ele>
        <time>2008-08-28T14:01:03Z</time>
      </trkpt>
      <trkpt lat="45.09935" lon="2.73975">
        <ele>1682.005005</ele>
        <time>2008-08-28T14:01:16Z</time>
      </trkpt>
      <trkpt lat="45.09931" lon="2.73989">
        <ele>1678.996948</ele>
        <time>2008-08-28T14:01:30Z</time>
      </trkpt>
      <trkpt lat="45.09927" lon="2.74002">
        <ele>1674.075439</ele>
        <time>2008-08-28T14:01:45Z</time>
      </trkpt>
      <trkpt lat="45.09917" lon="2.74003">
        <ele>1672.340942</ele>
        <time>2008-08-28T14:06:45Z</time>
      </trkpt>
      <trkpt lat="45.0991" lon="2.74014">
        <ele>1668.913086</ele>
        <time>2008-08-28T14:07:05Z</time>
      </trkpt>
      <trkpt lat="45.09902" lon="2.7402">
        <ele>1666.873779</ele>
        <time>2008-08-28T14:07:25Z</time>
      </trkpt>
      <trkpt lat="45.09893" lon="2.74028">
        <ele>1665.0896</ele>
        <time>2008-08-28T14:07:43Z</time>
      </trkpt>
      <trkpt lat="45.09884" lon="2.74033">
        <ele>1663.205322</ele>
        <time>2008-08-28T14:08:16Z</time>
      </trkpt>
      <trkpt lat="45.09876" lon="2.74042">
        <ele>1660.004028</ele>
        <time>2008-08-28T14:08:46Z</time>
      </trkpt>
      <trkpt lat="45.09868" lon="2.74052">
        <ele>1654.707397</ele>
        <time>2008-08-28T14:09:05Z</time>
      </trkpt>
      <trkpt lat="45.09861" lon="2.74061">
        <ele>1650.361938</ele>
        <time>2008-08-28T14:09:26Z</time>
      </trkpt>
      <trkpt lat="45.09853" lon="2.7407">
        <ele>1647.228149</ele>
        <time>2008-08-28T14:09:38Z</time>
      </trkpt>
      <trkpt lat="45.09844" lon="2.74078">
        <ele>1645.59314</ele>
        <time>2008-08-28T14:09:53Z</time>
      </trkpt>
      <trkpt lat="45.09838" lon="2.74089">
        <ele>1643.556274</ele>
        <time>2008-08-28T14:10:10Z</time>
      </trkpt>
      <trkpt lat="45.0983" lon="2.74098">
        <ele>1641.672729</ele>
        <time>2008-08-28T14:10:27Z</time>
      </trkpt>
      <trkpt lat="45.09822" lon="2.74107">
        <ele>1641.127319</ele>
        <time>2008-08-28T14:10:39Z</time>
      </trkpt>
      <trkpt lat="45.09814" lon="2.74115">
        <ele>1634.996948</ele>
        <time>2008-08-28T14:10:53Z</time>
      </trkpt>
      <trkpt lat="45.09804" lon="2.74118">
        <ele>1632.095093</ele>
        <time>2008-08-28T14:11:05Z</time>
      </trkpt>
      <trkpt lat="45.09795" lon="2.74126">
        <ele>1625.909424</ele>
        <time>2008-08-28T14:12:20Z</time>
      </trkpt>
      <trkpt lat="45.09786" lon="2.74134">
        <ele>1618.50708</ele>
        <time>2008-08-28T14:12:44Z</time>
      </trkpt>
      <trkpt lat="45.09776" lon="2.74131">
        <ele>1617.159668</ele>
        <time>2008-08-28T14:30:14Z</time>
      </trkpt>
      <trkpt lat="45.09766" lon="2.74134">
        <ele>1612.93811</ele>
        <time>2008-08-28T14:30:36Z</time>
      </trkpt>
      <trkpt lat="45.09758" lon="2.74142">
        <ele>1607.591187</ele>
        <time>2008-08-28T14:33:08Z</time>
      </trkpt>
      <trkpt lat="45.09749" lon="2.74134">
        <ele>1607.956177</ele>
        <time>2008-08-28T14:33:30Z</time>
      </trkpt>
      <trkpt lat="45.09744" lon="2.74121">
        <ele>1609.332764</ele>
        <time>2008-08-28T14:34:05Z</time>
      </trkpt>
      <trkpt lat="45.09735" lon="2.74114">
        <ele>1606.5271</ele>
        <time>2008-08-28T14:34:21Z</time>
      </trkpt>
      <trkpt lat="45.09725" lon="2.74116">
        <ele>1600.426392</ele>
        <time>2008-08-28T14:34:51Z</time>
      </trkpt>
      <trkpt lat="45.09722" lon="2.74129">
        <ele>1595.327148</ele>
        <time>2008-08-28T14:35:59Z</time>
      </trkpt>
      <trkpt lat="45.09725" lon="2.74143">
        <ele>1593.292358</ele>
        <time>2008-08-28T14:36:15Z</time>
      </trkpt>
      <trkpt lat="45.09728" lon="2.74158">
        <ele>1590.717529</ele>
        <time>2008-08-28T14:36:28Z</time>
      </trkpt>
      <trkpt lat="45.09734" lon="2.74169">
        <ele>1590.212036</ele>
        <time>2008-08-28T14:36:38Z</time>
      </trkpt>
      <trkpt lat="45.09726" lon="2.74178">
        <ele>1583.502686</ele>
        <time>2008-08-28T14:37:05Z</time>
      </trkpt>
      <trkpt lat="45.09717" lon="2.74185">
        <ele>1577.951782</ele>
        <time>2008-08-28T14:37:31Z</time>
      </trkpt>
      <trkpt lat="45.0972" lon="2.74198">
        <ele>1573.679688</ele>
        <time>2008-08-28T14:39:59Z</time>
      </trkpt>
      <trkpt lat="45.09726" lon="2.74211">
        <ele>1569.601563</ele>
        <time>2008-08-28T14:40:11Z</time>
      </trkpt>
      <trkpt lat="45.09723" lon="2.74224">
        <ele>1563.977173</ele>
        <time>2008-08-28T14:40:31Z</time>
      </trkpt>
      <trkpt lat="45.09716" lon="2.74233">
        <ele>1561.039795</ele>
        <time>2008-08-28T14:40:43Z</time>
      </trkpt>
      <trkpt lat="45.09708" lon="2.74241">
        <ele>1558.929321</ele>
        <time>2008-08-28T14:40:54Z</time>
      </trkpt>
      <trkpt lat="45.09706" lon="2.74256">
        <ele>1554.055786</ele>
        <time>2008-08-28T14:41:06Z</time>
      </trkpt>
      <trkpt lat="45.09702" lon="2.74269">
        <ele>1548.343994</ele>
        <time>2008-08-28T14:41:17Z</time>
      </trkpt>
      <trkpt lat="45.09701" lon="2.74284">
        <ele>1543.065674</ele>
        <time>2008-08-28T14:41:28Z</time>
      </trkpt>
      <trkpt lat="45.097" lon="2.74299">
        <ele>1538.368286</ele>
        <time>2008-08-28T14:41:39Z</time>
      </trkpt>
      <trkpt lat="45.09695" lon="2.74311">
        <ele>1534.334595</ele>
        <time>2008-08-28T14:41:49Z</time>
      </trkpt>
      <trkpt lat="45.09685" lon="2.74306">
        <ele>1534.4823</ele>
        <time>2008-08-28T14:42:42Z</time>
      </trkpt>
      <trkpt lat="45.09677" lon="2.74297">
        <ele>1535.327026</ele>
        <time>2008-08-28T14:42:54Z</time>
      </trkpt>
      <trkpt lat="45.09669" lon="2.74289">
        <ele>1535.190552</ele>
        <time>2008-08-28T14:43:06Z</time>
      </trkpt>
      <trkpt lat="45.0966" lon="2.74297">
        <ele>1532.662964</ele>
        <time>2008-08-28T14:43:29Z</time>
      </trkpt>
      <trkpt lat="45.09651" lon="2.74305">
        <ele>1527.345215</ele>
        <time>2008-08-28T14:43:48Z</time>
      </trkpt>
      <trkpt lat="45.09641" lon="2.74311">
        <ele>1522.557617</ele>
        <time>2008-08-28T14:44:06Z</time>
      </trkpt>
      <trkpt lat="45.09631" lon="2.74309">
        <ele>1518.366699</ele>
        <time>2008-08-28T14:45:24Z</time>
      </trkpt>
      <trkpt lat="45.09622" lon="2.74302">
        <ele>1515.240112</ele>
        <time>2008-08-28T14:45:40Z</time>
      </trkpt>
      <trkpt lat="45.09612" lon="2.74302">
        <ele>1510.404785</ele>
        <time>2008-08-28T14:46:03Z</time>
      </trkpt>
      <trkpt lat="45.09602" lon="2.74303">
        <ele>1505.127197</ele>
        <time>2008-08-28T14:47:16Z</time>
      </trkpt>
      <trkpt lat="45.09595" lon="2.74293">
        <ele>1502.188721</ele>
        <time>2008-08-28T14:49:06Z</time>
      </trkpt>
      <trkpt lat="45.09586" lon="2.74287">
        <ele>1497.481323</ele>
        <time>2008-08-28T14:49:26Z</time>
      </trkpt>
      <trkpt lat="45.09576" lon="2.74291">
        <ele>1492.315796</ele>
        <time>2008-08-28T14:50:14Z</time>
      </trkpt>
      <trkpt lat="45.09578" lon="2.74304">
        <ele>1493.088013</ele>
        <time>2008-08-28T14:51:09Z</time>
      </trkpt>
      <trkpt lat="45.09571" lon="2.74316">
        <ele>1488.632202</ele>
        <time>2008-08-28T14:51:16Z</time>
      </trkpt>
      <trkpt lat="45.09563" lon="2.74324">
        <ele>1484.09314</ele>
        <time>2008-08-28T14:51:24Z</time>
      </trkpt>
      <trkpt lat="45.09554" lon="2.7433">
        <ele>1479.501953</ele>
        <time>2008-08-28T14:51:39Z</time>
      </trkpt>
      <trkpt lat="45.09545" lon="2.74339">
        <ele>1474.830078</ele>
        <time>2008-08-28T14:51:54Z</time>
      </trkpt>
      <trkpt lat="45.09536" lon="2.74347">
        <ele>1470.318604</ele>
        <time>2008-08-28T14:52:02Z</time>
      </trkpt>
      <trkpt lat="45.09527" lon="2.74353">
        <ele>1465.765381</ele>
        <time>2008-08-28T14:52:12Z</time>
      </trkpt>
      <trkpt lat="45.09517" lon="2.74352">
        <ele>1462.169556</ele>
        <time>2008-08-28T14:52:23Z</time>
      </trkpt>
      <trkpt lat="45.09506" lon="2.74356">
        <ele>1458.592896</ele>
        <time>2008-08-28T14:52:34Z</time>
      </trkpt>
      <trkpt lat="45.09499" lon="2.74366">
        <ele>1453.646973</ele>
        <time>2008-08-28T14:52:46Z</time>
      </trkpt>
      <trkpt lat="45.0949" lon="2.74373">
        <ele>1448.130127</ele>
        <time>2008-08-28T14:52:55Z</time>
      </trkpt>
      <trkpt lat="45.0948" lon="2.74378">
        <ele>1442.927612</ele>
        <time>2008-08-28T14:53:06Z</time>
      </trkpt>
      <trkpt lat="45.0947" lon="2.74381">
        <ele>1438.830688</ele>
        <time>2008-08-28T14:53:21Z</time>
      </trkpt>
      <trkpt lat="45.0946" lon="2.74385">
        <ele>1434.606079</ele>
        <time>2008-08-28T14:53:28Z</time>
      </trkpt>
      <trkpt lat="45.09449" lon="2.74384">
        <ele>1431.536377</ele>
        <time>2008-08-28T14:53:36Z</time>
      </trkpt>
      <trkpt lat="45.0944" lon="2.74377">
        <ele>1431.188232</ele>
        <time>2008-08-28T14:53:46Z</time>
      </trkpt>
      <trkpt lat="45.09429" lon="2.74378">
        <ele>1427.74646</ele>
        <time>2008-08-28T14:53:58Z</time>
      </trkpt>
      <trkpt lat="45.09418" lon="2.74381">
        <ele>1423.704834</ele>
        <time>2008-08-28T14:54:06Z</time>
      </trkpt>
      <trkpt lat="45.09408" lon="2.74386">
        <ele>1420.113281</ele>
        <time>2008-08-28T14:54:12Z</time>
      </trkpt>
      <trkpt lat="45.09398" lon="2.74387">
        <ele>1417.314453</ele>
        <time>2008-08-28T14:54:22Z</time>
      </trkpt>
      <trkpt lat="45.09388" lon="2.7439">
        <ele>1414.289673</ele>
        <time>2008-08-28T14:54:35Z</time>
      </trkpt>
      <trkpt lat="45.09379" lon="2.74393">
        <ele>1411.367798</ele>
        <time>2008-08-28T14:54:44Z</time>
      </trkpt>
      <trkpt lat="45.0937" lon="2.744">
        <ele>1408.282471</ele>
        <time>2008-08-28T14:54:52Z</time>
      </trkpt>
      <trkpt lat="45.09359" lon="2.74406">
        <ele>1405.315186</ele>
        <time>2008-08-28T14:55:01Z</time>
      </trkpt>
      <trkpt lat="45.09349" lon="2.74409">
        <ele>1402.694702</ele>
        <time>2008-08-28T14:55:09Z</time>
      </trkpt>
      <trkpt lat="45.0934" lon="2.74404">
        <ele>1400.174805</ele>
        <time>2008-08-28T14:55:22Z</time>
      </trkpt>
      <trkpt lat="45.0933" lon="2.74408">
        <ele>1396.461426</ele>
        <time>2008-08-28T14:55:30Z</time>
      </trkpt>
      <trkpt lat="45.0932" lon="2.74413">
        <ele>1392.727783</ele>
        <time>2008-08-28T14:55:43Z</time>
      </trkpt>
      <trkpt lat="45.0931" lon="2.74418">
        <ele>1389.108398</ele>
        <time>2008-08-28T14:55:51Z</time>
      </trkpt>
      <trkpt lat="45.093" lon="2.74421">
        <ele>1385.527588</ele>
        <time>2008-08-28T14:56:01Z</time>
      </trkpt>
      <trkpt lat="45.09289" lon="2.74425">
        <ele>1380.913574</ele>
        <time>2008-08-28T14:56:11Z</time>
      </trkpt>
      <trkpt lat="45.09281" lon="2.74419">
        <ele>1379.263062</ele>
        <time>2008-08-28T14:57:14Z</time>
      </trkpt>
      <trkpt lat="45.09271" lon="2.74424">
        <ele>1375.309448</ele>
        <time>2008-08-28T14:59:10Z</time>
      </trkpt>
      <trkpt lat="45.0928" lon="2.74414">
        <ele>1378.863281</ele>
        <time>2008-08-28T14:59:31Z</time>
      </trkpt>
      <trkpt lat="45.09273" lon="2.74424">
        <ele>1375.937378</ele>
        <time>2008-08-28T15:00:21Z</time>
      </trkpt>
      <trkpt lat="45.09265" lon="2.74416">
        <ele>1373.711182</ele>
        <time>2008-08-28T15:00:34Z</time>
      </trkpt>
      <trkpt lat="45.09258" lon="2.74403">
        <ele>1370.577515</ele>
        <time>2008-08-28T15:00:45Z</time>
      </trkpt>
      <trkpt lat="45.09257" lon="2.74388">
        <ele>1368.951294</ele>
        <time>2008-08-28T15:00:56Z</time>
      </trkpt>
      <trkpt lat="45.09263" lon="2.74374">
        <ele>1370.254028</ele>
        <time>2008-08-28T15:01:03Z</time>
      </trkpt>
      <trkpt lat="45.09268" lon="2.74361">
        <ele>1371.830444</ele>
        <time>2008-08-28T15:01:12Z</time>
      </trkpt>
      <trkpt lat="45.0927" lon="2.74346">
        <ele>1369.6875</ele>
        <time>2008-08-28T15:01:21Z</time>
      </trkpt>
      <trkpt lat="45.09271" lon="2.74329">
        <ele>1366.665283</ele>
        <time>2008-08-28T15:01:32Z</time>
      </trkpt>
      <trkpt lat="45.09273" lon="2.74315">
        <ele>1364.308716</ele>
        <time>2008-08-28T15:01:44Z</time>
      </trkpt>
      <trkpt lat="45.09279" lon="2.74302">
        <ele>1363.85791</ele>
        <time>2008-08-28T15:01:52Z</time>
      </trkpt>
      <trkpt lat="45.09282" lon="2.74286">
        <ele>1362.79126</ele>
        <time>2008-08-28T15:02:00Z</time>
      </trkpt>
      <trkpt lat="45.09285" lon="2.74272">
        <ele>1362.030396</ele>
        <time>2008-08-28T15:02:07Z</time>
      </trkpt>
      <trkpt lat="45.09286" lon="2.74257">
        <ele>1360.275146</ele>
        <time>2008-08-28T15:02:14Z</time>
      </trkpt>
      <trkpt lat="45.09282" lon="2.74243">
        <ele>1356.936035</ele>
        <time>2008-08-28T15:02:25Z</time>
      </trkpt>
      <trkpt lat="45.09282" lon="2.74228">
        <ele>1355.045654</ele>
        <time>2008-08-28T15:02:33Z</time>
      </trkpt>
      <trkpt lat="45.09284" lon="2.74214">
        <ele>1354.906982</ele>
        <time>2008-08-28T15:02:39Z</time>
      </trkpt>
      <trkpt lat="45.09288" lon="2.74201">
        <ele>1354.995972</ele>
        <time>2008-08-28T15:02:45Z</time>
      </trkpt>
      <trkpt lat="45.09291" lon="2.74187">
        <ele>1354.937378</ele>
        <time>2008-08-28T15:02:55Z</time>
      </trkpt>
      <trkpt lat="45.09282" lon="2.7418">
        <ele>1351.133789</ele>
        <time>2008-08-28T15:03:06Z</time>
      </trkpt>
      <trkpt lat="45.09272" lon="2.74174">
        <ele>1346.939209</ele>
        <time>2008-08-28T15:03:15Z</time>
      </trkpt>
      <trkpt lat="45.09261" lon="2.74171">
        <ele>1343.077637</ele>
        <time>2008-08-28T15:03:30Z</time>
      </trkpt>
      <trkpt lat="45.09251" lon="2.74172">
        <ele>1339.814331</ele>
        <time>2008-08-28T15:03:39Z</time>
      </trkpt>
      <trkpt lat="45.09243" lon="2.7418">
        <ele>1337.799194</ele>
        <time>2008-08-28T15:03:47Z</time>
      </trkpt>
      <trkpt lat="45.09232" lon="2.74186">
        <ele>1334.696777</ele>
        <time>2008-08-28T15:03:57Z</time>
      </trkpt>
      <trkpt lat="45.09222" lon="2.74191">
        <ele>1331.721436</ele>
        <time>2008-08-28T15:04:06Z</time>
      </trkpt>
      <trkpt lat="45.09212" lon="2.7419">
        <ele>1328.489136</ele>
        <time>2008-08-28T15:04:15Z</time>
      </trkpt>
      <trkpt lat="45.09201" lon="2.74189">
        <ele>1325.465576</ele>
        <time>2008-08-28T15:04:24Z</time>
      </trkpt>
      <trkpt lat="45.09191" lon="2.74186">
        <ele>1322.841431</ele>
        <time>2008-08-28T15:04:32Z</time>
      </trkpt>
      <trkpt lat="45.09181" lon="2.7418">
        <ele>1320.197876</ele>
        <time>2008-08-28T15:04:42Z</time>
      </trkpt>
      <trkpt lat="45.09171" lon="2.74182">
        <ele>1317.445435</ele>
        <time>2008-08-28T15:04:51Z</time>
      </trkpt>
      <trkpt lat="45.09162" lon="2.74177">
        <ele>1316.713501</ele>
        <time>2008-08-28T15:05:01Z</time>
      </trkpt>
      <trkpt lat="45.09151" lon="2.74181">
        <ele>1316.612549</ele>
        <time>2008-08-28T15:05:10Z</time>
      </trkpt>
      <trkpt lat="45.09141" lon="2.74186">
        <ele>1315.96106</ele>
        <time>2008-08-28T15:05:18Z</time>
      </trkpt>
      <trkpt lat="45.09132" lon="2.74178">
        <ele>1317.862793</ele>
        <time>2008-08-28T15:05:40Z</time>
      </trkpt>
      <trkpt lat="45.09125" lon="2.74188">
        <ele>1315.132813</ele>
        <time>2008-08-28T15:05:52Z</time>
      </trkpt>
      <trkpt lat="45.09121" lon="2.74201">
        <ele>1311.260742</ele>
        <time>2008-08-28T15:06:12Z</time>
      </trkpt>
      <trkpt lat="45.09115" lon="2.74213">
        <ele>1307.283447</ele>
        <time>2008-08-28T15:06:21Z</time>
      </trkpt>
      <trkpt lat="45.09111" lon="2.74226">
        <ele>1303.281128</ele>
        <time>2008-08-28T15:06:31Z</time>
      </trkpt>
      <trkpt lat="45.09101" lon="2.74233">
        <ele>1301.518188</ele>
        <time>2008-08-28T15:06:44Z</time>
      </trkpt>
      <trkpt lat="45.09093" lon="2.74241">
        <ele>1299.592529</ele>
        <time>2008-08-28T15:06:52Z</time>
      </trkpt>
      <trkpt lat="45.09084" lon="2.74249">
        <ele>1296.864014</ele>
        <time>2008-08-28T15:07:00Z</time>
      </trkpt>
      <trkpt lat="45.09074" lon="2.74252">
        <ele>1294.444458</ele>
        <time>2008-08-28T15:07:08Z</time>
      </trkpt>
      <trkpt lat="45.09063" lon="2.74251">
        <ele>1292.40332</ele>
        <time>2008-08-28T15:07:16Z</time>
      </trkpt>
      <trkpt lat="45.09053" lon="2.74247">
        <ele>1291.428345</ele>
        <time>2008-08-28T15:07:26Z</time>
      </trkpt>
      <trkpt lat="45.09043" lon="2.74243">
        <ele>1290.248413</ele>
        <time>2008-08-28T15:07:35Z</time>
      </trkpt>
      <trkpt lat="45.09033" lon="2.74239">
        <ele>1289.477661</ele>
        <time>2008-08-28T15:07:42Z</time>
      </trkpt>
      <trkpt lat="45.09023" lon="2.74231">
        <ele>1287.733765</ele>
        <time>2008-08-28T15:07:52Z</time>
      </trkpt>
      <trkpt lat="45.09019" lon="2.74219">
        <ele>1287.642822</ele>
        <time>2008-08-28T15:08:00Z</time>
      </trkpt>
      <trkpt lat="45.09012" lon="2.74208">
        <ele>1285.449585</ele>
        <time>2008-08-28T15:08:11Z</time>
      </trkpt>
      <trkpt lat="45.09006" lon="2.74197">
        <ele>1283.223633</ele>
        <time>2008-08-28T15:08:21Z</time>
      </trkpt>
      <trkpt lat="45.09007" lon="2.74182">
        <ele>1284.963623</ele>
        <time>2008-08-28T15:08:29Z</time>
      </trkpt>
      <trkpt lat="45.09006" lon="2.74168">
        <ele>1285.288208</ele>
        <time>2008-08-28T15:08:40Z</time>
      </trkpt>
      <trkpt lat="45.09003" lon="2.74154">
        <ele>1282.891235</ele>
        <time>2008-08-28T15:08:49Z</time>
      </trkpt>
      <trkpt lat="45.08999" lon="2.7414">
        <ele>1279.000854</ele>
        <time>2008-08-28T15:08:59Z</time>
      </trkpt>
      <trkpt lat="45.08996" lon="2.74125">
        <ele>1275.400513</ele>
        <time>2008-08-28T15:09:07Z</time>
      </trkpt>
      <trkpt lat="45.08995" lon="2.74109">
        <ele>1272.631714</ele>
        <time>2008-08-28T15:09:13Z</time>
      </trkpt>
      <trkpt lat="45.08995" lon="2.74093">
        <ele>1270.410889</ele>
        <time>2008-08-28T15:09:22Z</time>
      </trkpt>
      <trkpt lat="45.08987" lon="2.74085">
        <ele>1264.572754</ele>
        <time>2008-08-28T15:09:35Z</time>
      </trkpt>
      <trkpt lat="45.08978" lon="2.74096">
        <ele>1262.313599</ele>
        <time>2008-08-28T15:09:44Z</time>
      </trkpt>
      <trkpt lat="45.08974" lon="2.74109">
        <ele>1261.908936</ele>
        <time>2008-08-28T15:09:54Z</time>
      </trkpt>
      <trkpt lat="45.08968" lon="2.74123">
        <ele>1260.764771</ele>
        <time>2008-08-28T15:10:02Z</time>
      </trkpt>
      <trkpt lat="45.08962" lon="2.74134">
        <ele>1258.87207</ele>
        <time>2008-08-28T15:10:11Z</time>
      </trkpt>
      <trkpt lat="45.08958" lon="2.74148">
        <ele>1258.562134</ele>
        <time>2008-08-28T15:10:22Z</time>
      </trkpt>
      <trkpt lat="45.08955" lon="2.74162">
        <ele>1258.471558</ele>
        <time>2008-08-28T15:10:30Z</time>
      </trkpt>
      <trkpt lat="45.08946" lon="2.74156">
        <ele>1253.312012</ele>
        <time>2008-08-28T15:11:36Z</time>
      </trkpt>
      <trkpt lat="45.08946" lon="2.74141">
        <ele>1252.101563</ele>
        <time>2008-08-28T15:11:48Z</time>
      </trkpt>
      <trkpt lat="45.0895" lon="2.74127">
        <ele>1252.64978</ele>
        <time>2008-08-28T15:11:56Z</time>
      </trkpt>
      <trkpt lat="45.08953" lon="2.74114">
        <ele>1252.459351</ele>
        <time>2008-08-28T15:12:03Z</time>
      </trkpt>
      <trkpt lat="45.08955" lon="2.74099">
        <ele>1251.818848</ele>
        <time>2008-08-28T15:12:13Z</time>
      </trkpt>
      <trkpt lat="45.0896" lon="2.74087">
        <ele>1252.519043</ele>
        <time>2008-08-28T15:12:21Z</time>
      </trkpt>
      <trkpt lat="45.08964" lon="2.74073">
        <ele>1252.765381</ele>
        <time>2008-08-28T15:12:29Z</time>
      </trkpt>
      <trkpt lat="45.0897" lon="2.74062">
        <ele>1253.758911</ele>
        <time>2008-08-28T15:12:37Z</time>
      </trkpt>
      <trkpt lat="45.08974" lon="2.74049">
        <ele>1253.998169</ele>
        <time>2008-08-28T15:12:46Z</time>
      </trkpt>
      <trkpt lat="45.08976" lon="2.74035">
        <ele>1252.532227</ele>
        <time>2008-08-28T15:12:55Z</time>
      </trkpt>
      <trkpt lat="45.08976" lon="2.74019">
        <ele>1250.04187</ele>
        <time>2008-08-28T15:13:04Z</time>
      </trkpt>
      <trkpt lat="45.08981" lon="2.74008">
        <ele>1250.490723</ele>
        <time>2008-08-28T15:13:12Z</time>
      </trkpt>
      <trkpt lat="45.08986" lon="2.73994">
        <ele>1250.007813</ele>
        <time>2008-08-28T15:13:20Z</time>
      </trkpt>
      <trkpt lat="45.08988" lon="2.73979">
        <ele>1248.132202</ele>
        <time>2008-08-28T15:13:29Z</time>
      </trkpt>
      <trkpt lat="45.08987" lon="2.73965">
        <ele>1245.248901</ele>
        <time>2008-08-28T15:13:38Z</time>
      </trkpt>
      <trkpt lat="45.08997" lon="2.73966">
        <ele>1249.79126</ele>
        <time>2008-08-28T15:13:59Z</time>
      </trkpt>
      <trkpt lat="45.08989" lon="2.73977">
        <ele>1248.397949</ele>
        <time>2008-08-28T15:14:11Z</time>
      </trkpt>
      <trkpt lat="45.0898" lon="2.73986">
        <ele>1246.126343</ele>
        <time>2008-08-28T15:14:17Z</time>
      </trkpt>
      <trkpt lat="45.0897" lon="2.73994">
        <ele>1243.672241</ele>
        <time>2008-08-28T15:14:24Z</time>
      </trkpt>
      <trkpt lat="45.08962" lon="2.74004">
        <ele>1242.072754</ele>
        <time>2008-08-28T15:14:34Z</time>
      </trkpt>
      <trkpt lat="45.08957" lon="2.74019">
        <ele>1241.793823</ele>
        <time>2008-08-28T15:14:42Z</time>
      </trkpt>
      <trkpt lat="45.0895" lon="2.7403">
        <ele>1240.406738</ele>
        <time>2008-08-28T15:14:49Z</time>
      </trkpt>
      <trkpt lat="45.08943" lon="2.74041">
        <ele>1238.731079</ele>
        <time>2008-08-28T15:14:57Z</time>
      </trkpt>
      <trkpt lat="45.08934" lon="2.74049">
        <ele>1236.291016</ele>
        <time>2008-08-28T15:15:03Z</time>
      </trkpt>
      <trkpt lat="45.08927" lon="2.74062">
        <ele>1235.060669</ele>
        <time>2008-08-28T15:15:12Z</time>
      </trkpt>
      <trkpt lat="45.08921" lon="2.74074">
        <ele>1234.231567</ele>
        <time>2008-08-28T15:15:18Z</time>
      </trkpt>
      <trkpt lat="45.08918" lon="2.74089">
        <ele>1234.532227</ele>
        <time>2008-08-28T15:15:28Z</time>
      </trkpt>
      <trkpt lat="45.08913" lon="2.74101">
        <ele>1233.72876</ele>
        <time>2008-08-28T15:15:38Z</time>
      </trkpt>
      <trkpt lat="45.08908" lon="2.74115">
        <ele>1232.545776</ele>
        <time>2008-08-28T15:15:47Z</time>
      </trkpt>
      <trkpt lat="45.08902" lon="2.74128">
        <ele>1231.001953</ele>
        <time>2008-08-28T15:15:58Z</time>
      </trkpt>
      <trkpt lat="45.08898" lon="2.74142">
        <ele>1230.208252</ele>
        <time>2008-08-28T15:16:06Z</time>
      </trkpt>
      <trkpt lat="45.08892" lon="2.74154">
        <ele>1228.544189</ele>
        <time>2008-08-28T15:16:13Z</time>
      </trkpt>
      <trkpt lat="45.08883" lon="2.74163">
        <ele>1225.356079</ele>
        <time>2008-08-28T15:16:21Z</time>
      </trkpt>
      <trkpt lat="45.08877" lon="2.74174">
        <ele>1222.7052</ele>
        <time>2008-08-28T15:16:30Z</time>
      </trkpt>
      <trkpt lat="45.08874" lon="2.74187">
        <ele>1221.399902</ele>
        <time>2008-08-28T15:16:39Z</time>
      </trkpt>
      <trkpt lat="45.0887" lon="2.74201">
        <ele>1219.916626</ele>
        <time>2008-08-28T15:16:50Z</time>
      </trkpt>
      <trkpt lat="45.08868" lon="2.74215">
        <ele>1219.243408</ele>
        <time>2008-08-28T15:17:00Z</time>
      </trkpt>
      <trkpt lat="45.08862" lon="2.74227">
        <ele>1217.112305</ele>
        <time>2008-08-28T15:17:08Z</time>
      </trkpt>
      <trkpt lat="45.08856" lon="2.74238">
        <ele>1214.69458</ele>
        <time>2008-08-28T15:17:15Z</time>
      </trkpt>
      <trkpt lat="45.0885" lon="2.74249">
        <ele>1212.101929</ele>
        <time>2008-08-28T15:17:23Z</time>
      </trkpt>
      <trkpt lat="45.0884" lon="2.74251">
        <ele>1206.886353</ele>
        <time>2008-08-28T15:17:34Z</time>
      </trkpt>
      <trkpt lat="45.08831" lon="2.74242">
        <ele>1202.350098</ele>
        <time>2008-08-28T15:17:43Z</time>
      </trkpt>
      <trkpt lat="45.08829" lon="2.74228">
        <ele>1200.706299</ele>
        <time>2008-08-28T15:18:08Z</time>
      </trkpt>
      <trkpt lat="45.08826" lon="2.74214">
        <ele>1199.143921</ele>
        <time>2008-08-28T15:19:03Z</time>
      </trkpt>
      <trkpt lat="45.08829" lon="2.74201">
        <ele>1200.683838</ele>
        <time>2008-08-28T15:19:20Z</time>
      </trkpt>
      <trkpt lat="45.08831" lon="2.74187">
        <ele>1202.182983</ele>
        <time>2008-08-28T15:19:34Z</time>
      </trkpt>
      <trkpt lat="45.08834" lon="2.74173">
        <ele>1203.832642</ele>
        <time>2008-08-28T15:19:45Z</time>
      </trkpt>
      <trkpt lat="45.08837" lon="2.7416">
        <ele>1205.014771</ele>
        <time>2008-08-28T15:19:55Z</time>
      </trkpt>
      <trkpt lat="45.08837" lon="2.74145">
        <ele>1204.611694</ele>
        <time>2008-08-28T15:20:05Z</time>
      </trkpt>
      <trkpt lat="45.08838" lon="2.74129">
        <ele>1204.702393</ele>
        <time>2008-08-28T15:20:14Z</time>
      </trkpt>
      <trkpt lat="45.08836" lon="2.74116">
        <ele>1203.260986</ele>
        <time>2008-08-28T15:20:22Z</time>
      </trkpt>
      <trkpt lat="45.08831" lon="2.74103">
        <ele>1201.251099</ele>
        <time>2008-08-28T15:20:30Z</time>
      </trkpt>
      <trkpt lat="45.08831" lon="2.74088">
        <ele>1200.952881</ele>
        <time>2008-08-28T15:20:39Z</time>
      </trkpt>
      <trkpt lat="45.08833" lon="2.74073">
        <ele>1201.082031</ele>
        <time>2008-08-28T15:20:47Z</time>
      </trkpt>
      <trkpt lat="45.08834" lon="2.74059">
        <ele>1201.196777</ele>
        <time>2008-08-28T15:20:56Z</time>
      </trkpt>
      <trkpt lat="45.08834" lon="2.74044">
        <ele>1201.031982</ele>
        <time>2008-08-28T15:21:05Z</time>
      </trkpt>
      <trkpt lat="45.08835" lon="2.74029">
        <ele>1200.956909</ele>
        <time>2008-08-28T15:21:13Z</time>
      </trkpt>
      <trkpt lat="45.08836" lon="2.74015">
        <ele>1201.068604</ele>
        <time>2008-08-28T15:21:21Z</time>
      </trkpt>
      <trkpt lat="45.08835" lon="2.74">
        <ele>1200.528809</ele>
        <time>2008-08-28T15:21:31Z</time>
      </trkpt>
      <trkpt lat="45.08836" lon="2.73985">
        <ele>1200.466553</ele>
        <time>2008-08-28T15:21:37Z</time>
      </trkpt>
      <trkpt lat="45.08836" lon="2.7397">
        <ele>1200.280762</ele>
        <time>2008-08-28T15:21:46Z</time>
      </trkpt>
      <trkpt lat="45.08834" lon="2.73956">
        <ele>1199.907959</ele>
        <time>2008-08-28T15:21:55Z</time>
      </trkpt>
      <trkpt lat="45.08827" lon="2.73943">
        <ele>1198.723389</ele>
        <time>2008-08-28T15:22:04Z</time>
      </trkpt>
      <trkpt lat="45.08817" lon="2.73938">
        <ele>1196.898315</ele>
        <time>2008-08-28T15:22:13Z</time>
      </trkpt>
      <trkpt lat="45.08807" lon="2.73939">
        <ele>1195.10083</ele>
        <time>2008-08-28T15:22:21Z</time>
      </trkpt>
      <trkpt lat="45.08798" lon="2.73942">
        <ele>1195.728516</ele>
        <time>2008-08-28T15:22:30Z</time>
      </trkpt>
      <trkpt lat="45.08787" lon="2.73939">
        <ele>1196.618774</ele>
        <time>2008-08-28T15:22:39Z</time>
      </trkpt>
      <trkpt lat="45.08779" lon="2.73931">
        <ele>1197.591553</ele>
        <time>2008-08-28T15:22:50Z</time>
      </trkpt>
      <trkpt lat="45.08775" lon="2.73918">
        <ele>1198.480225</ele>
        <time>2008-08-28T15:23:01Z</time>
      </trkpt>
      <trkpt lat="45.08766" lon="2.73913">
        <ele>1199.508911</ele>
        <time>2008-08-28T15:23:16Z</time>
      </trkpt>
      <trkpt lat="45.08755" lon="2.73915">
        <ele>1201.241455</ele>
        <time>2008-08-28T15:23:26Z</time>
      </trkpt>
      <trkpt lat="45.08745" lon="2.73911">
        <ele>1203.375</ele>
        <time>2008-08-28T15:23:36Z</time>
      </trkpt>
      <trkpt lat="45.08739" lon="2.73899">
        <ele>1205.272583</ele>
        <time>2008-08-28T15:23:46Z</time>
      </trkpt>
      <trkpt lat="45.08735" lon="2.73913">
        <ele>1205.402954</ele>
        <time>2008-08-28T15:23:59Z</time>
      </trkpt>
      <trkpt lat="45.08725" lon="2.73909">
        <ele>1207.516479</ele>
        <time>2008-08-28T15:24:07Z</time>
      </trkpt>
      <trkpt lat="45.08715" lon="2.73904">
        <ele>1210.276733</ele>
        <time>2008-08-28T15:24:22Z</time>
      </trkpt>
      <trkpt lat="45.08705" lon="2.73904">
        <ele>1213.657471</ele>
        <time>2008-08-28T15:24:31Z</time>
      </trkpt>
      <trkpt lat="45.08694" lon="2.73901">
        <ele>1217.388428</ele>
        <time>2008-08-28T15:24:44Z</time>
      </trkpt>
      <trkpt lat="45.08684" lon="2.73901">
        <ele>1220.760498</ele>
        <time>2008-08-28T15:25:00Z</time>
      </trkpt>
      <trkpt lat="45.08677" lon="2.73889">
        <ele>1223.428833</ele>
        <time>2008-08-28T15:25:15Z</time>
      </trkpt>
      <trkpt lat="45.0867" lon="2.7388">
        <ele>1226.36438</ele>
        <time>2008-08-28T15:25:43Z</time>
      </trkpt>
      <trkpt lat="45.08663" lon="2.7387">
        <ele>1229.072632</ele>
        <time>2008-08-28T15:25:55Z</time>
      </trkpt>
      <trkpt lat="45.08658" lon="2.73858">
        <ele>1231.246826</ele>
        <time>2008-08-28T15:26:05Z</time>
      </trkpt>
      <trkpt lat="45.08651" lon="2.73848">
        <ele>1233.857788</ele>
        <time>2008-08-28T15:26:23Z</time>
      </trkpt>
      <trkpt lat="45.08646" lon="2.73835">
        <ele>1235.920898</ele>
        <time>2008-08-28T15:26:38Z</time>
      </trkpt>
      <trkpt lat="45.08643" lon="2.73822">
        <ele>1237.682373</ele>
        <time>2008-08-28T15:26:46Z</time>
      </trkpt>
      <trkpt lat="45.08639" lon="2.73808">
        <ele>1239.559937</ele>
        <time>2008-08-28T15:26:57Z</time>
      </trkpt>
      <trkpt lat="45.08635" lon="2.73796">
        <ele>1241.510986</ele>
        <time>2008-08-28T15:27:04Z</time>
      </trkpt>
      <trkpt lat="45.08631" lon="2.73781">
        <ele>1243.28418</ele>
        <time>2008-08-28T15:27:12Z</time>
      </trkpt>
      <trkpt lat="45.08628" lon="2.73766">
        <ele>1246.052368</ele>
        <time>2008-08-28T15:27:22Z</time>
      </trkpt>
      <trkpt lat="45.08619" lon="2.73759">
        <ele>1249.909424</ele>
        <time>2008-08-28T15:27:36Z</time>
      </trkpt>
      <trkpt lat="45.08611" lon="2.73748">
        <ele>1253.366333</ele>
        <time>2008-08-28T15:27:51Z</time>
      </trkpt>
      <trkpt lat="45.08603" lon="2.73739">
        <ele>1256.383667</ele>
        <time>2008-08-28T15:28:00Z</time>
      </trkpt>
      <trkpt lat="45.08593" lon="2.73737">
        <ele>1259.342407</ele>
        <time>2008-08-28T15:28:11Z</time>
      </trkpt>
      <trkpt lat="45.08582" lon="2.73735">
        <ele>1262.188965</ele>
        <time>2008-08-28T15:28:30Z</time>
      </trkpt>
      <trkpt lat="45.08576" lon="2.73724">
        <ele>1264.716553</ele>
        <time>2008-08-28T15:28:40Z</time>
      </trkpt>
      <trkpt lat="45.08574" lon="2.7371">
        <ele>1266.169189</ele>
        <time>2008-08-28T15:28:42Z</time>
      </trkpt>
      <trkpt lat="45.08567" lon="2.737">
        <ele>1268.681763</ele>
        <time>2008-08-28T15:29:00Z</time>
      </trkpt>
      <trkpt lat="45.08563" lon="2.73687">
        <ele>1270.508667</ele>
        <time>2008-08-28T15:29:11Z</time>
      </trkpt>
      <trkpt lat="45.08553" lon="2.73683">
        <ele>1273.024536</ele>
        <time>2008-08-28T15:29:20Z</time>
      </trkpt>
      <trkpt lat="45.08546" lon="2.73674">
        <ele>1275.117065</ele>
        <time>2008-08-28T15:29:33Z</time>
      </trkpt>
      <trkpt lat="45.08539" lon="2.73664">
        <ele>1276.899292</ele>
        <time>2008-08-28T15:29:49Z</time>
      </trkpt>
      <trkpt lat="45.08528" lon="2.73664">
        <ele>1280.111694</ele>
        <time>2008-08-28T15:30:18Z</time>
      </trkpt>
      <trkpt lat="45.08521" lon="2.73674">
        <ele>1282.201172</ele>
        <time>2008-08-28T15:31:05Z</time>
      </trkpt>
      <trkpt lat="45.0853" lon="2.73667">
        <ele>1279.431641</ele>
        <time>2008-08-28T15:31:25Z</time>
      </trkpt>
      <trkpt lat="45.08526" lon="2.73654">
        <ele>1280.834473</ele>
        <time>2008-08-28T15:31:49Z</time>
      </trkpt>
      <trkpt lat="45.08519" lon="2.73645">
        <ele>1283.669556</ele>
        <time>2008-08-28T15:32:01Z</time>
      </trkpt>
      <trkpt lat="45.08516" lon="2.73659">
        <ele>1283.932373</ele>
        <time>2008-08-28T15:32:09Z</time>
      </trkpt>
      <trkpt lat="45.08514" lon="2.73644">
        <ele>1285.105835</ele>
        <time>2008-08-28T15:32:27Z</time>
      </trkpt>
      <trkpt lat="45.08518" lon="2.73629">
        <ele>1284.987549</ele>
        <time>2008-08-28T15:32:35Z</time>
      </trkpt>
      <trkpt lat="45.08516" lon="2.73614">
        <ele>1286.153809</ele>
        <time>2008-08-28T15:32:39Z</time>
      </trkpt>
      <trkpt lat="45.08515" lon="2.73598">
        <ele>1287.442505</ele>
        <time>2008-08-28T15:32:43Z</time>
      </trkpt>
      <trkpt lat="45.0852" lon="2.73586">
        <ele>1286.948608</ele>
        <time>2008-08-28T15:32:54Z</time>
      </trkpt>
      <trkpt lat="45.08518" lon="2.7357">
        <ele>1289.362427</ele>
        <time>2008-08-28T15:33:05Z</time>
      </trkpt>
      <trkpt lat="45.08521" lon="2.73555">
        <ele>1290.720093</ele>
        <time>2008-08-28T15:33:12Z</time>
      </trkpt>
      <trkpt lat="45.08525" lon="2.73541">
        <ele>1291.93335</ele>
        <time>2008-08-28T15:33:20Z</time>
      </trkpt>
      <trkpt lat="45.08527" lon="2.73527">
        <ele>1293.441772</ele>
        <time>2008-08-28T15:33:29Z</time>
      </trkpt>
      <trkpt lat="45.0853" lon="2.73513">
        <ele>1294.402954</ele>
        <time>2008-08-28T15:33:38Z</time>
      </trkpt>
      <trkpt lat="45.08532" lon="2.73499">
        <ele>1295.265869</ele>
        <time>2008-08-28T15:33:46Z</time>
      </trkpt>
      <trkpt lat="45.08535" lon="2.73485">
        <ele>1296.299683</ele>
        <time>2008-08-28T15:33:54Z</time>
      </trkpt>
      <trkpt lat="45.08535" lon="2.73471">
        <ele>1297.549316</ele>
        <time>2008-08-28T15:34:02Z</time>
      </trkpt>
      <trkpt lat="45.08537" lon="2.73456">
        <ele>1298.567139</ele>
        <time>2008-08-28T15:34:11Z</time>
      </trkpt>
      <trkpt lat="45.08538" lon="2.73441">
        <ele>1299.430786</ele>
        <time>2008-08-28T15:34:20Z</time>
      </trkpt>
      <trkpt lat="45.08538" lon="2.73427">
        <ele>1300.315063</ele>
        <time>2008-08-28T15:34:28Z</time>
      </trkpt>
      <trkpt lat="45.08537" lon="2.73412">
        <ele>1301.21521</ele>
        <time>2008-08-28T15:34:37Z</time>
      </trkpt>
      <trkpt lat="45.08533" lon="2.73399">
        <ele>1301.99939</ele>
        <time>2008-08-28T15:34:47Z</time>
      </trkpt>
      <trkpt lat="45.08531" lon="2.73384">
        <ele>1301.954834</ele>
        <time>2008-08-28T15:34:55Z</time>
      </trkpt>
    </trkseg>
  </trk>
</gpx>